NOAA Web Site Link Tides and Currents Home Page Transparent placeholder image

PORTS® Data Listing: 9414290 San Francisco, CA

CO-OPS RAW PORTS DATA

************************      PRELIMINARY DATA      ************************** 

     THIS RAW DATA HAS NOT BEEN SUBJECT TO THE NATIONAL OCEAN SERVICE'S        
     QUALITY CONTROL OR QUALITY ASSURANCE PROCEDURES AND DOES NOT MEET         
     THE CRITERIA AND STANDARDS OF OFFICIAL NATIONAL OCEAN SERVICE             
     DATA.  IT IS RELEASED FOR LIMITED PUBLIC USE AS PRELIMINARY DATA TO       
     BE USED ONLY WITH APPROPRIATE CAUTION.                                    

************************      PRELIMINARY DATA      ************************** 


       CD   -   Calendar date
       T    -   Time
       TZ   -   Timezone
       PW   -   Predicted water level (feet above MLLW)
       OW   -   Observed water level (feet above MLLW)
       WS   -   Wind speed (knots)
       WD   -   Wind direction (degrees true)
       WG   -   Wind gust (knots)
       AT   -   Air temperature (degrees farenheit)
       WT   -   Water temperature (degrees farenheit)
       AP   -   Air pressure (millibars)
       SA   -   Salinty (PSU - Practical Salinity Units)
       SG   -   Specific gravity
       RH   -   Relative humidity
       AG   -   Air gap (feet)
       VI   -   Visibility (nautical miles)

       ** NOTE **
       A variable that has its data fields filled with "9"s, indicates that
       data was not collected for that sample period.
       **********


STATION NAME: San Francisco (9414290)
****************************************************************************************************
    CD       T    TZ    PW     OW    WS   WD   WG    AT    WT    AP    SA    SG     RH    AG   VI
****************************************************************************************************
2019/04/23 07:24 PDT    0.40   0.44    0  225    0  57.9  53.8 1016.7 -9.9 -9.999 -99.9 -99.99 -9.99
2019/04/23 07:30 PDT    0.30   0.39    1  298    3  57.0  53.8 1016.8 -9.9 -9.999 -99.9 -99.99 -9.99
2019/04/23 07:36 PDT    0.21   0.32    2  303    4  56.3  53.8 1016.8 -9.9 -9.999 -99.9 -99.99 -9.99
2019/04/23 07:42 PDT    0.12   0.27    1  322    2  56.8  53.8 1016.8 -9.9 -9.999 -99.9 -99.99 -9.99
2019/04/23 07:48 PDT    0.03   0.23    1  311    1  57.2  54.0 1016.8 -9.9 -9.999 -99.9 -99.99 -9.99
2019/04/23 07:54 PDT   -0.05   0.14    1  306    2  57.6  54.0 1016.8 -9.9 -9.999 -99.9 -99.99 -9.99
2019/04/23 08:00 PDT   -0.12   0.10    2  325    3  57.4  54.1 1016.8 -9.9 -9.999 -99.9 -99.99 -9.99
2019/04/23 08:06 PDT   -0.19   0.04    1  318    4  57.7  54.1 1016.8 -9.9 -9.999 -99.9 -99.99 -9.99
2019/04/23 08:12 PDT   -0.25  -0.01    2  302    4  57.6  54.3 1016.8 -9.9 -9.999 -99.9 -99.99 -9.99
2019/04/23 08:18 PDT   -0.30  -0.07    3  312    4  57.7  54.3 1016.8 -9.9 -9.999 -99.9 -99.99 -9.99
2019/04/23 08:24 PDT   -0.35  -0.10    3  316    4  57.6  54.3 1016.8 -9.9 -9.999 -99.9 -99.99 -9.99
2019/04/23 08:30 PDT   -0.39  -0.14    4  307    6  57.6  54.5 1016.9 -9.9 -9.999 -99.9 -99.99 -9.99
2019/04/23 08:36 PDT   -0.43  -0.17    4  303    7  58.1  54.5 1016.8 -9.9 -9.999 -99.9 -99.99 -9.99
2019/04/23 08:42 PDT   -0.46  -0.20    5  307    7  58.1  55.6 1016.8 -9.9 -9.999 -99.9 -99.99 -9.99
2019/04/23 08:48 PDT   -0.48  -0.21    5  305    6  57.9  56.5 1016.8 -9.9 -9.999 -99.9 -99.99 -9.99
2019/04/23 08:54 PDT   -0.50  -0.20    5  307    7  58.1  57.0 1016.7 -9.9 -9.999 -99.9 -99.99 -9.99
2019/04/23 09:00 PDT   -0.51  -0.21    5  304    7  58.5  57.4 1016.8 -9.9 -9.999 -99.9 -99.99 -9.99
2019/04/23 09:06 PDT   -0.52  -0.18    5  309    6  58.6  57.4 1016.8 -9.9 -9.999 -99.9 -99.99 -9.99
2019/04/23 09:12 PDT   -0.52  -0.14    3  301    6  59.2  57.4 1016.8 -9.9 -9.999 -99.9 -99.99 -9.99
2019/04/23 09:18 PDT   -0.52  -0.10    1  338    3  60.1  57.6 1016.9 -9.9 -9.999 -99.9 -99.99 -9.99
2019/04/23 09:24 PDT   -0.51  -0.09    4  313    5  60.1  57.6 1017.0 -9.9 -9.999 -99.9 -99.99 -9.99
2019/04/23 09:30 PDT   -0.50  -0.07    2  318    4  60.8  57.6 1016.9 -9.9 -9.999 -99.9 -99.99 -9.99
2019/04/23 09:36 PDT   -0.48  -0.05    1  318    3  61.5  57.6 1016.9 -9.9 -9.999 -99.9 -99.99 -9.99
2019/04/23 09:42 PDT   -0.45  -0.02    2  328    3  62.1  57.7 1016.9 -9.9 -9.999 -99.9 -99.99 -9.99
2019/04/23 09:48 PDT   -0.42  -0.01    2  338    4  62.1  58.3 1017.0 -9.9 -9.999 -99.9 -99.99 -9.99
2019/04/23 09:54 PDT   -0.39   0.01    2  325    4  62.1  58.3 1016.9 -9.9 -9.999 -99.9 -99.99 -9.99
2019/04/23 10:00 PDT   -0.35   0.05    1  334    3  62.6  58.3 1016.9 -9.9 -9.999 -99.9 -99.99 -9.99
2019/04/23 10:06 PDT   -0.30   0.10    1  323    1  63.7  58.3 1016.8 -9.9 -9.999 -99.9 -99.99 -9.99
2019/04/23 10:12 PDT   -0.26   0.14    4  265    5  63.7  58.1 1016.8 -9.9 -9.999 -99.9 -99.99 -9.99
2019/04/23 10:18 PDT   -0.20   0.19    3  288    5  63.5  58.1 1016.8 -9.9 -9.999 -99.9 -99.99 -9.99
2019/04/23 10:24 PDT   -0.15   0.24    4  263    7  63.7  57.9 1016.8 -9.9 -9.999 -99.9 -99.99 -9.99
2019/04/23 10:30 PDT   -0.09   0.34    5  257    8  63.5  57.2 1016.8 -9.9 -9.999 -99.9 -99.99 -9.99
2019/04/23 10:36 PDT   -0.02   0.43    6  246    8  63.0  58.3 1016.8 -9.9 -9.999 -99.9 -99.99 -9.99
2019/04/23 10:42 PDT    0.05   0.51    6  244    9  62.6  58.5 1016.8 -9.9 -9.999 -99.9 -99.99 -9.99
2019/04/23 10:48 PDT    0.12   0.54    5  243    7  63.0  58.6 1016.8 -9.9 -9.999 -99.9 -99.99 -9.99
2019/04/23 10:54 PDT    0.19   0.60    5  249    7  63.5  58.8 1016.8 -9.9 -9.999 -99.9 -99.99 -9.99
2019/04/23 11:00 PDT    0.27   0.66    5  246    7  64.2  59.0 1016.7 -9.9 -9.999 -99.9 -99.99 -9.99
2019/04/23 11:06 PDT    0.35   0.71    5  266    8  65.3  59.0 1016.7 -9.9 -9.999 -99.9 -99.99 -9.99
2019/04/23 11:12 PDT    0.44   0.77    5  260    7  66.0  59.4 1016.6 -9.9 -9.999 -99.9 -99.99 -9.99
2019/04/23 11:18 PDT    0.52   0.83    5  261    7  67.1  59.4 1016.6 -9.9 -9.999 -99.9 -99.99 -9.99
2019/04/23 11:24 PDT    0.61   0.90    4  270    5  68.0  59.5 1016.6 -9.9 -9.999 -99.9 -99.99 -9.99
2019/04/23 11:30 PDT    0.70   0.99    4  268    6  68.4  59.5 1016.6 -9.9 -9.999 -99.9 -99.99 -9.99
2019/04/23 11:36 PDT    0.80   1.09    5  249    7  68.4  59.5 1016.6 -9.9 -9.999 -99.9 -99.99 -9.99
2019/04/23 11:42 PDT    0.89   1.22    6  249    7  68.4  59.5 1016.5 -9.9 -9.999 -99.9 -99.99 -9.99
2019/04/23 11:48 PDT    0.99   1.31    6  247    7  68.4  59.7 1016.5 -9.9 -9.999 -99.9 -99.99 -9.99
2019/04/23 11:54 PDT    1.08   1.39    5  252    7  68.5  59.7 1016.4 -9.9 -9.999 -99.9 -99.99 -9.99
2019/04/23 12:00 PDT    1.18   1.47    7  248   10  67.6  59.7 1016.3 -9.9 -9.999 -99.9 -99.99 -9.99
2019/04/23 12:06 PDT    1.28   1.58    9  246   10  66.2  59.7 1016.3 -9.9 -9.999 -99.9 -99.99 -9.99
2019/04/23 12:12 PDT    1.38   1.68    8  251   10  66.4  59.7 1016.2 -9.9 -9.999 -99.9 -99.99 -9.99
2019/04/23 12:18 PDT    1.48   1.77    7  246    9  67.1  59.7 1016.2 -9.9 -9.999 -99.9 -99.99 -9.99
2019/04/23 12:24 PDT    1.58   1.86    8  245   10  66.2  59.9 1016.1 -9.9 -9.999 -99.9 -99.99 -9.99
2019/04/23 12:30 PDT    1.68   1.97    9  244   12  66.2  59.9 1016.0 -9.9 -9.999 -99.9 -99.99 -9.99
2019/04/23 12:36 PDT    1.78   2.06   10  244   13  65.7  59.9 1015.9 -9.9 -9.999 -99.9 -99.99 -9.99
2019/04/23 12:42 PDT    1.88   2.18   12  243   15  63.7  59.4 1015.9 -9.9 -9.999 -99.9 -99.99 -9.99
2019/04/23 12:48 PDT    1.98   2.27   12  242   16  63.5  59.4 1015.8 -9.9 -9.999 -99.9 -99.99 -9.99
2019/04/23 12:54 PDT    2.09   2.36   14  243   18  62.6  59.2 1015.8 -9.9 -9.999 -99.9 -99.99 -9.99
2019/04/23 13:00 PDT    2.19   2.45   14  235   18  61.9  58.8 1015.8 -9.9 -9.999 -99.9 -99.99 -9.99
2019/04/23 13:06 PDT    2.29   2.57   10  233   17  62.2  58.8 1015.8 -9.9 -9.999 -99.9 -99.99 -9.99
2019/04/23 13:12 PDT    2.38   2.66   13  241   16  62.2  59.2 1015.8 -9.9 -9.999 -99.9 -99.99 -9.99
2019/04/23 13:18 PDT    2.48   2.75   11  240   17  61.9  59.4 1015.7 -9.9 -9.999 -99.9 -99.99 -9.99
2019/04/23 13:24 PDT    2.58   2.82   10  241   15  62.1  58.8 1015.7 -9.9 -9.999 -99.9 -99.99 -9.99
2019/04/23 13:30 PDT    2.68   2.93    9  233   16  62.8  58.6 1015.6 -9.9 -9.999 -99.9 -99.99 -9.99
2019/04/23 13:36 PDT    2.77   3.04   14  239   16  62.8  58.5 1015.6 -9.9 -9.999 -99.9 -99.99 -9.99
2019/04/23 13:42 PDT    2.87   3.13   12  237   16  62.6  58.3 1015.6 -9.9 -9.999 -99.9 -99.99 -9.99
2019/04/23 13:48 PDT    2.96   3.24   11  238   16  63.5  58.1 1015.5 -9.9 -9.999 -99.9 -99.99 -9.99
2019/04/23 13:54 PDT    3.05   3.32   12  242   16  65.1  57.7 1015.5 -9.9 -9.999 -99.9 -99.99 -9.99
2019/04/23 14:00 PDT    3.14   3.40   11  245   16  64.4  57.7 1015.5 -9.9 -9.999 -99.9 -99.99 -9.99
2019/04/23 14:06 PDT    3.23   3.49   14  247   17  63.7  57.6 1015.4 -9.9 -9.999 -99.9 -99.99 -9.99
2019/04/23 14:12 PDT    3.32   3.59   13  242   19  63.3  57.0 1015.3 -9.9 -9.999 -99.9 -99.99 -9.99
2019/04/23 14:18 PDT    3.40   3.63   12  245   17  63.9  56.3 1015.3 -9.9 -9.999 -99.9 -99.99 -9.99
2019/04/23 14:24 PDT    3.48   3.69   11  244   15  65.3  55.9 1015.3 -9.9 -9.999 -99.9 -99.99 -9.99
2019/04/23 14:30 PDT    3.56   3.78   11  247   17  65.1  55.0 1015.3 -9.9 -9.999 -99.9 -99.99 -9.99
2019/04/23 14:36 PDT    3.64   3.88   13  242   18  64.4  55.6 1015.2 -9.9 -9.999 -99.9 -99.99 -9.99
2019/04/23 14:42 PDT    3.71   3.95   11  243   17  65.1  55.8 1015.3 -9.9 -9.999 -99.9 -99.99 -9.99
2019/04/23 14:48 PDT    3.79   4.02   11  246   14  65.7  55.4 1015.2 -9.9 -9.999 -99.9 -99.99 -9.99
2019/04/23 14:54 PDT    3.86   4.07   10  249   14  66.6  55.2 1015.1 -9.9 -9.999 -99.9 -99.99 -9.99
2019/04/23 15:00 PDT    3.92   4.10   10  257   13  66.7  55.0 1015.1 -9.9 -9.999 -99.9 -99.99 -9.99
2019/04/23 15:06 PDT    3.98   4.12   11  252   14  66.0  54.7 1015.1 -9.9 -9.999 -99.9 -99.99 -9.99
2019/04/23 15:12 PDT    4.04   4.19   11  264   14  66.9  54.5 1015.0 -9.9 -9.999 -99.9 -99.99 -9.99
2019/04/23 15:18 PDT    4.10   4.26   12  262   16  67.1  54.3 1014.9 -9.9 -9.999 -99.9 -99.99 -9.99
2019/04/23 15:24 PDT    4.15   4.31   10  262   17  67.5  54.3 1014.9 -9.9 -9.999 -99.9 -99.99 -9.99
2019/04/23 15:30 PDT    4.19   4.37    8  267   13  68.2  54.3 1014.9 -9.9 -9.999 -99.9 -99.99 -9.99
2019/04/23 15:36 PDT    4.24   4.41    9  258   13  67.8  54.3 1014.8 -9.9 -9.999 -99.9 -99.99 -9.99
2019/04/23 15:42 PDT    4.28   4.46    9  243   14  65.7  54.5 1014.7 -9.9 -9.999 -99.9 -99.99 -9.99
2019/04/23 15:48 PDT    4.31   4.50    8  241   15  65.7  54.3 1014.7 -9.9 -9.999 -99.9 -99.99 -9.99
2019/04/23 15:54 PDT    4.34   4.54   10  245   13  65.3  54.3 1014.6 -9.9 -9.999 -99.9 -99.99 -9.99
2019/04/23 16:00 PDT    4.37   4.54   12  242   15  63.7  54.5 1014.6 -9.9 -9.999 -99.9 -99.99 -9.99
2019/04/23 16:06 PDT    4.39   4.57   10  243   13  64.2  54.3 1014.6 -9.9 -9.999 -99.9 -99.99 -9.99
2019/04/23 16:12 PDT    4.40   4.59   13  252   17  62.8  54.5 1014.5 -9.9 -9.999 -99.9 -99.99 -9.99
2019/04/23 16:18 PDT    4.42   4.62   13  253   19  62.1  54.7 1014.4 -9.9 -9.999 -99.9 -99.99 -9.99
2019/04/23 16:24 PDT    4.42   4.65   11  246   17  62.1  54.7 1014.4 -9.9 -9.999 -99.9 -99.99 -9.99
2019/04/23 16:30 PDT    4.43   4.67   10  249   14  62.1  54.3 1014.4 -9.9 -9.999 -99.9 -99.99 -9.99
2019/04/23 16:36 PDT    4.43   4.68   13  246   18  61.2  54.5 1014.3 -9.9 -9.999 -99.9 -99.99 -9.99
2019/04/23 16:42 PDT    4.42   4.69   11  242   16  61.5  54.7 1014.3 -9.9 -9.999 -99.9 -99.99 -9.99
2019/04/23 16:48 PDT    4.41   4.67   12  246   16  61.3  54.5 1014.3 -9.9 -9.999 -99.9 -99.99 -9.99
2019/04/23 16:54 PDT    4.40   4.63   11  253   14  61.3  54.7 1014.3 -9.9 -9.999 -99.9 -99.99 -9.99
2019/04/23 17:00 PDT    4.38   4.58   11  253   16  61.0  54.9 1014.2 -9.9 -9.999 -99.9 -99.99 -9.99
2019/04/23 17:06 PDT    4.36   4.55   13  257   17  60.8  55.0 1014.1 -9.9 -9.999 -99.9 -99.99 -9.99
2019/04/23 17:12 PDT    4.34   4.52   11  249   16  61.0  55.4 1014.1 -9.9 -9.999 -99.9 -99.99 -9.99
2019/04/23 17:18 PDT    4.31   4.51   11  250   16  61.0  55.4 1014.0 -9.9 -9.999 -99.9 -99.99 -9.99
2019/04/23 17:24 PDT    4.28   4.48   12  249   17  61.0  55.4 1014.0 -9.9 -9.999 -99.9 -99.99 -9.99
2019/04/23 17:30 PDT    4.24   4.45   12  240   17  60.6  55.0 1014.0 -9.9 -9.999 -99.9 -99.99 -9.99
2019/04/23 17:36 PDT    4.21   4.43   12  244   18  60.3  54.9 1013.9 -9.9 -9.999 -99.9 -99.99 -9.99
2019/04/23 17:42 PDT    4.17   4.39   11  247   19  60.3  54.7 1013.8 -9.9 -9.999 -99.9 -99.99 -9.99
2019/04/23 17:48 PDT    4.12   4.35   11  251   18  60.1  55.0 1013.8 -9.9 -9.999 -99.9 -99.99 -9.99
2019/04/23 17:54 PDT    4.08   4.30   12  250   19  59.5  54.9 1013.7 -9.9 -9.999 -99.9 -99.99 -9.99
2019/04/23 18:00 PDT    4.03   4.25   14  249   18  59.2  54.7 1013.6 -9.9 -9.999 -99.9 -99.99 -9.99
2019/04/23 18:06 PDT    3.98   4.19   15  248   19  59.0  54.9 1013.5 -9.9 -9.999 -99.9 -99.99 -9.99
2019/04/23 18:12 PDT    3.93   4.18   17  244   21  59.0  55.6 1013.5 -9.9 -9.999 -99.9 -99.99 -9.99
2019/04/23 18:18 PDT    3.88   4.13   13  247   21  58.8  56.5 1013.5 -9.9 -9.999 -99.9 -99.99 -9.99
2019/04/23 18:24 PDT    3.83   4.07   14  245   20  58.6  56.5 1013.4 -9.9 -9.999 -99.9 -99.99 -9.99
2019/04/23 18:30 PDT    3.77   4.02   16  243   21  58.5  56.5 1013.4 -9.9 -9.999 -99.9 -99.99 -9.99
2019/04/23 18:36 PDT    3.72   3.98   16  246   23  58.5  56.5 1013.4 -9.9 -9.999 -99.9 -99.99 -9.99
2019/04/23 18:42 PDT    3.66   3.94   15  244   20  58.1  55.2 1013.3 -9.9 -9.999 -99.9 -99.99 -9.99
2019/04/23 18:48 PDT    3.61   3.89   13  239   20  58.1  54.5 1013.3 -9.9 -9.999 -99.9 -99.99 -9.99
2019/04/23 18:54 PDT    3.55   3.85   12  241   18  58.1  54.3 1013.3 -9.9 -9.999 -99.9 -99.99 -9.99
2019/04/23 19:00 PDT    3.50   3.74    9  240   17  58.1  54.5 1013.3 -9.9 -9.999 -99.9 -99.99 -9.99
2019/04/23 19:06 PDT    3.44   3.67    7  240   16  58.3  54.9 1013.4 -9.9 -9.999 -99.9 -99.99 -9.99
2019/04/23 19:12 PDT    3.39   3.63    8  238   13  58.1  55.2 1013.3 -9.9 -9.999 -99.9 -99.99 -9.99
2019/04/23 19:18 PDT    3.33   3.59    6  240   14  57.7  55.4 1013.3 -9.9 -9.999 -99.9 -99.99 -9.99
2019/04/23 19:24 PDT    3.28   3.56    5  244   15  57.7  55.6 1013.4 -9.9 -9.999 -99.9 -99.99 -9.99
2019/04/23 19:30 PDT    3.23   3.52    6  222   11  57.7  55.4 1013.4 -9.9 -9.999 -99.9 -99.99 -9.99
2019/04/23 19:36 PDT    3.19   3.47    3  225    8  57.7  55.0 1013.4 -9.9 -9.999 -99.9 -99.99 -9.99
2019/04/23 19:42 PDT    3.14   3.38    2  236    9  57.7  55.2 1013.4 -9.9 -9.999 -99.9 -99.99 -9.99
2019/04/23 19:48 PDT    3.10   3.34    6  226   11  57.7  55.6 1013.4 -9.9 -9.999 -99.9 -99.99 -9.99
2019/04/23 19:54 PDT    3.05   3.33    6  233   10  57.6  55.4 1013.4 -9.9 -9.999 -99.9 -99.99 -9.99
2019/04/23 20:00 PDT    3.02   3.32    3  241   10  57.4  55.4 1013.4 -9.9 -9.999 -99.9 -99.99 -9.99
2019/04/23 20:06 PDT    2.98   3.28    5  243   10  57.4  55.4 1013.5 -9.9 -9.999 -99.9 -99.99 -9.99
2019/04/23 20:12 PDT    2.95   3.22    4  223    9  57.2  55.4 1013.5 -9.9 -9.999 -99.9 -99.99 -9.99
2019/04/23 20:18 PDT    2.92   3.18    6  228   12  57.2  55.4 1013.5 -9.9 -9.999 -99.9 -99.99 -9.99
2019/04/23 20:24 PDT    2.89   3.15    7  230   11  57.0  55.4 1013.5 -9.9 -9.999 -99.9 -99.99 -9.99
2019/04/23 20:30 PDT    2.86   3.15    5  215   13  57.0  55.2 1013.6 -9.9 -9.999 -99.9 -99.99 -9.99
2019/04/23 20:36 PDT    2.84   3.15    3  236    7  57.0  55.8 1013.7 -9.9 -9.999 -99.9 -99.99 -9.99
2019/04/23 20:42 PDT    2.82   3.15    4  241    7  56.8  56.5 1013.7 -9.9 -9.999 -99.9 -99.99 -9.99
2019/04/23 20:48 PDT    2.81   3.13    5  258    9  57.0  56.5 1013.8 -9.9 -9.999 -99.9 -99.99 -9.99
2019/04/23 20:54 PDT    2.80   3.14    6  250    9  57.0  56.5 1013.8 -9.9 -9.999 -99.9 -99.99 -9.99
2019/04/23 21:00 PDT    2.79   3.17    4  279   11  57.2  56.5 1013.9 -9.9 -9.999 -99.9 -99.99 -9.99
2019/04/23 21:06 PDT    2.78   3.17    5  255   11  57.2  56.5 1013.9 -9.9 -9.999 -99.9 -99.99 -9.99
2019/04/23 21:12 PDT    2.78   3.19    5  259   10  57.2  56.5 1014.0 -9.9 -9.999 -99.9 -99.99 -9.99
2019/04/23 21:18 PDT    2.78   3.21    6  261   10  57.0  56.5 1014.1 -9.9 -9.999 -99.9 -99.99 -9.99
2019/04/23 21:24 PDT    2.78   3.23    7  256   10  57.0  56.5 1014.1 -9.9 -9.999 -99.9 -99.99 -9.99
2019/04/23 21:30 PDT    2.79   3.24    6  252   11  57.0  56.5 1014.2 -9.9 -9.999 -99.9 -99.99 -9.99
2019/04/23 21:36 PDT    2.80   3.26    7  258   11  57.0  56.5 1014.2 -9.9 -9.999 -99.9 -99.99 -9.99
2019/04/23 21:42 PDT    2.82   3.29    6  245   12  57.2  56.5 1014.2 -9.9 -9.999 -99.9 -99.99 -9.99
2019/04/23 21:48 PDT    2.83   3.33    6  255   11  57.2  56.5 1014.2 -9.9 -9.999 -99.9 -99.99 -9.99
2019/04/23 21:54 PDT    2.85   3.38    5  253    9  57.2  56.5 1014.2 -9.9 -9.999 -99.9 -99.99 -9.99
2019/04/23 22:00 PDT    2.88   3.42    5  257    9  57.4  56.5 1014.1 -9.9 -9.999 -99.9 -99.99 -9.99
2019/04/23 22:06 PDT    2.90   3.42    6  260    9  57.4  56.5 1014.1 -9.9 -9.999 -99.9 -99.99 -9.99
2019/04/23 22:12 PDT    2.93   3.40    6  255   10  57.4  56.5 1014.2 -9.9 -9.999 -99.9 -99.99 -9.99
2019/04/23 22:18 PDT    2.96   3.41    5  253   10  57.2  56.5 1014.2 -9.9 -9.999 -99.9 -99.99 -9.99
2019/04/23 22:24 PDT    3.00   3.47    5  262    8  57.2  56.5 1014.1 -9.9 -9.999 -99.9 -99.99 -9.99
2019/04/23 22:30 PDT    3.04   3.53    5  250    9  57.2  56.5 1014.1 -9.9 -9.999 -99.9 -99.99 -9.99
2019/04/23 22:36 PDT    3.08   3.56    8  251   10  57.2  56.5 1014.1 -9.9 -9.999 -99.9 -99.99 -9.99
2019/04/23 22:42 PDT    3.12   3.60    5  255    9  57.0  56.5 1014.1 -9.9 -9.999 -99.9 -99.99 -9.99
2019/04/23 22:48 PDT    3.17   3.62    6  253    8  57.0  56.5 1014.0 -9.9 -9.999 -99.9 -99.99 -9.99
2019/04/23 22:54 PDT    3.22   3.65    5  259   11  56.8  56.5 1014.1 -9.9 -9.999 -99.9 -99.99 -9.99
2019/04/23 23:00 PDT    3.27   3.69    7  248   11  56.8  56.5 1014.1 -9.9 -9.999 -99.9 -99.99 -9.99
2019/04/23 23:06 PDT    3.32   3.73    6  252   11  56.7  56.5 1014.0 -9.9 -9.999 -99.9 -99.99 -9.99
2019/04/23 23:12 PDT    3.38   3.80    6  238   11  56.5  56.7 1014.0 -9.9 -9.999 -99.9 -99.99 -9.99
2019/04/23 23:18 PDT    3.43   3.87    6  247   10  56.3  57.0 1014.0 -9.9 -9.999 -99.9 -99.99 -9.99
2019/04/23 23:24 PDT    3.49   3.91    6  244    9  56.1  57.2 1014.0 -9.9 -9.999 -99.9 -99.99 -9.99
2019/04/23 23:30 PDT    3.55   4.01    5  271    7  56.1  57.4 1014.0 -9.9 -9.999 -99.9 -99.99 -9.99
2019/04/23 23:36 PDT    3.62   4.10    4  246    8  56.1  57.4 1013.9 -9.9 -9.999 -99.9 -99.99 -9.99
2019/04/23 23:42 PDT    3.68   4.15    4  251    8  56.3  57.4 1014.0 -9.9 -9.999 -99.9 -99.99 -9.99
2019/04/23 23:48 PDT    3.75   4.19    5  259    9  56.3  57.4 1014.1 -9.9 -9.999 -99.9 -99.99 -9.99
2019/04/23 23:54 PDT    3.81   4.24    6  248   10  56.1  57.4 1014.1 -9.9 -9.999 -99.9 -99.99 -9.99
2019/04/24 00:00 PDT    3.88   4.31    7  262    9  56.1  57.4 1014.1 -9.9 -9.999 -99.9 -99.99 -9.99
2019/04/24 00:06 PDT    3.95   4.38    5  254    9  55.9  57.2 1014.1 -9.9 -9.999 -99.9 -99.99 -9.99
2019/04/24 00:12 PDT    4.02   4.45    3  274    9  55.9  57.4 1014.1 -9.9 -9.999 -99.9 -99.99 -9.99
2019/04/24 00:18 PDT    4.08   4.51    5  256    9  55.8  57.4 1014.2 -9.9 -9.999 -99.9 -99.99 -9.99
2019/04/24 00:24 PDT    4.15   4.54    3  249    8  55.8  57.4 1014.1 -9.9 -9.999 -99.9 -99.99 -9.99
2019/04/24 00:30 PDT    4.22   4.61    4  276    6  55.8  57.2 1014.2 -9.9 -9.999 -99.9 -99.99 -9.99
2019/04/24 00:36 PDT    4.29   4.66    3  249   10  55.8  57.2 1014.2 -9.9 -9.999 -99.9 -99.99 -9.99
2019/04/24 00:42 PDT    4.35   4.75    4  256    8  55.8  57.0 1014.2 -9.9 -9.999 -99.9 -99.99 -9.99
2019/04/24 00:48 PDT    4.42   4.82    5  262    8  55.8  57.2 1014.3 -9.9 -9.999 -99.9 -99.99 -9.99
2019/04/24 00:54 PDT    4.48   4.88    4  267    7  55.8  57.2 1014.2 -9.9 -9.999 -99.9 -99.99 -9.99
2019/04/24 01:00 PDT    4.55   4.94    4  268    6  55.8  57.2 1014.2 -9.9 -9.999 -99.9 -99.99 -9.99
2019/04/24 01:06 PDT    4.61   5.00    3  278    6  55.8  57.2 1014.2 -9.9 -9.999 -99.9 -99.99 -9.99
2019/04/24 01:12 PDT    4.67   5.04    5  247   10  55.8  57.0 1014.1 -9.9 -9.999 -99.9 -99.99 -9.99
2019/04/24 01:18 PDT    4.73   5.07    4  255    9  55.6  56.8 1014.1 -9.9 -9.999 -99.9 -99.99 -9.99
2019/04/24 01:24 PDT    4.79   5.11    2  290    9  55.6  56.7 1014.0 -9.9 -9.999 -99.9 -99.99 -9.99
2019/04/24 01:30 PDT    4.84   5.14    3  259    7  55.6  56.5 1014.0 -9.9 -9.999 -99.9 -99.99 -9.99
2019/04/24 01:36 PDT    4.89   5.19    3  256    7  55.6  55.9 1013.9 -9.9 -9.999 -99.9 -99.99 -9.99
2019/04/24 01:42 PDT    4.94   5.23    3  288    6  55.8  55.8 1013.9 -9.9 -9.999 -99.9 -99.99 -9.99
2019/04/24 01:48 PDT    4.99   5.28    3  272    6  55.9  55.8 1013.9 -9.9 -9.999 -99.9 -99.99 -9.99
2019/04/24 01:54 PDT    5.04   5.35    4  257    7  55.9  55.6 1013.9 -9.9 -9.999 -99.9 -99.99 -9.99
2019/04/24 02:00 PDT    5.08   5.40    4  259    6  55.9  55.6 1013.9 -9.9 -9.999 -99.9 -99.99 -9.99
2019/04/24 02:06 PDT    5.12   5.44    3  237    7  55.8  55.2 1013.8 -9.9 -9.999 -99.9 -99.99 -9.99
2019/04/24 02:12 PDT    5.16   5.47    3  276    4  55.8  55.0 1013.8 -9.9 -9.999 -99.9 -99.99 -9.99
2019/04/24 02:18 PDT    5.19   5.50    4  236    7  55.8  54.9 1013.8 -9.9 -9.999 -99.9 -99.99 -9.99
2019/04/24 02:24 PDT    5.22   5.53    4  226    7  55.9  54.7 1013.7 -9.9 -9.999 -99.9 -99.99 -9.99
2019/04/24 02:30 PDT    5.25   5.55    5  238    7  55.9  54.5 1013.7 -9.9 -9.999 -99.9 -99.99 -9.99
2019/04/24 02:36 PDT    5.27   5.57    5  225    8  55.9  54.3 1013.7 -9.9 -9.999 -99.9 -99.99 -9.99
2019/04/24 02:42 PDT    5.29   5.61    6  229    9  55.8  54.0 1013.7 -9.9 -9.999 -99.9 -99.99 -9.99
2019/04/24 02:48 PDT    5.31   5.63    4  217   10  55.8  53.8 1013.7 -9.9 -9.999 -99.9 -99.99 -9.99
2019/04/24 02:54 PDT    5.32   5.64    6  226    7  55.8  53.4 1013.7 -9.9 -9.999 -99.9 -99.99 -9.99
2019/04/24 03:00 PDT    5.33   5.63    4  217    9  55.8  53.2 1013.7 -9.9 -9.999 -99.9 -99.99 -9.99
2019/04/24 03:06 PDT    5.33   5.60    5  228    6  55.8  53.4 1013.7 -9.9 -9.999 -99.9 -99.99 -9.99
2019/04/24 03:12 PDT    5.33   5.59    2  244    8  55.8  54.0 1013.7 -9.9 -9.999 -99.9 -99.99 -9.99
2019/04/24 03:18 PDT    5.32   5.60    1  243    4  55.8  53.6 1013.7 -9.9 -9.999 -99.9 -99.99 -9.99
2019/04/24 03:24 PDT    5.31   5.59    4  240    6  55.6  52.9 1013.8 -9.9 -9.999 -99.9 -99.99 -9.99
2019/04/24 03:30 PDT    5.30   5.60    2  269    5  55.6  52.9 1013.7 -9.9 -9.999 -99.9 -99.99 -9.99
2019/04/24 03:36 PDT    5.27   5.59    3  289    6  55.6  52.9 1013.7 -9.9 -9.999 -99.9 -99.99 -9.99
2019/04/24 03:42 PDT    5.25   5.58    2  253    3  55.4  52.9 1013.7 -9.9 -9.999 -99.9 -99.99 -9.99
2019/04/24 03:48 PDT    5.22   5.54    3  258    6  55.4  52.9 1013.7 -9.9 -9.999 -99.9 -99.99 -9.99
2019/04/24 03:54 PDT    5.18   5.48    3  281    4  55.2  52.9 1013.7 -9.9 -9.999 -99.9 -99.99 -9.99
2019/04/24 04:00 PDT    5.14   5.44    4  244    6  55.2  52.9 1013.7 -9.9 -9.999 -99.9 -99.99 -9.99
2019/04/24 04:06 PDT    5.09   5.40    4  263    7  55.2  53.1 1013.8 -9.9 -9.999 -99.9 -99.99 -9.99
2019/04/24 04:12 PDT    5.04   5.36    3  247    8  55.2  53.6 1013.8 -9.9 -9.999 -99.9 -99.99 -9.99
2019/04/24 04:18 PDT    4.98   5.32    5  266    7  55.2  54.0 1013.7 -9.9 -9.999 -99.9 -99.99 -9.99
2019/04/24 04:24 PDT    4.92   5.24    5  255    9  55.2  53.6 1013.7 -9.9 -9.999 -99.9 -99.99 -9.99
2019/04/24 04:30 PDT    4.85   5.17    3  299    8  55.0  53.1 1013.7 -9.9 -9.999 -99.9 -99.99 -9.99
2019/04/24 04:36 PDT    4.78   5.09    5  254    8  55.0  52.9 1013.8 -9.9 -9.999 -99.9 -99.99 -9.99
2019/04/24 04:42 PDT    4.70   5.01    4  261    9  54.9  53.1 1013.8 -9.9 -9.999 -99.9 -99.99 -9.99
2019/04/24 04:48 PDT    4.61   4.93    5  253    9  54.7  54.0 1013.8 -9.9 -9.999 -99.9 -99.99 -9.99
2019/04/24 04:54 PDT    4.53   4.86    5  256   12  54.5  54.1 1013.8 -9.9 -9.999 -99.9 -99.99 -9.99
2019/04/24 05:00 PDT    4.43   4.80    7  256   10  54.3  54.3 1013.8 -9.9 -9.999 -99.9 -99.99 -9.99
2019/04/24 05:06 PDT    4.34   4.73    6  252    9  54.3  54.3 1013.8 -9.9 -9.999 -99.9 -99.99 -9.99
2019/04/24 05:12 PDT    4.24   4.64    7  254   10  54.3  54.5 1013.8 -9.9 -9.999 -99.9 -99.99 -9.99
2019/04/24 05:18 PDT    4.13   4.53    5  257   12  54.1  54.5 1013.9 -9.9 -9.999 -99.9 -99.99 -9.99
2019/04/24 05:24 PDT    4.02   4.42    4  257   11  54.0  54.5 1014.0 -9.9 -9.999 -99.9 -99.99 -9.99
2019/04/24 05:30 PDT    3.91   4.30    8  246   11  54.0  54.5 1014.0 -9.9 -9.999 -99.9 -99.99 -9.99
2019/04/24 05:36 PDT    3.79   4.15    5  242   10  54.0  54.5 1014.0 -9.9 -9.999 -99.9 -99.99 -9.99
2019/04/24 05:42 PDT    3.67   4.01    4  265   10  53.8  54.5 1014.1 -9.9 -9.999 -99.9 -99.99 -9.99
2019/04/24 05:48 PDT    3.55   3.88    4  255    8  53.8  54.5 1014.1 -9.9 -9.999 -99.9 -99.99 -9.99
2019/04/24 05:54 PDT    3.43   3.76    4  278    8  53.6  54.3 1014.2 -9.9 -9.999 -99.9 -99.99 -9.99
2019/04/24 06:00 PDT    3.30   3.63    4  272    7  53.6  54.5 1014.2 -9.9 -9.999 -99.9 -99.99 -9.99
2019/04/24 06:06 PDT    3.18   3.49    5  255    7  53.6  54.5 1014.2 -9.9 -9.999 -99.9 -99.99 -9.99
2019/04/24 06:12 PDT    3.05   3.36    4  252    9  53.6  54.7 1014.2 -9.9 -9.999 -99.9 -99.99 -9.99
2019/04/24 06:18 PDT    2.92   3.21    5  243    8  53.6  55.0 1014.3 -9.9 -9.999 -99.9 -99.99 -9.99
2019/04/24 06:24 PDT    2.78   3.05    4  225    7  53.6  55.0 1014.3 -9.9 -9.999 -99.9 -99.99 -9.99
2019/04/24 06:30 PDT    2.65   2.90    5  245    8  53.8  55.0 1014.3 -9.9 -9.999 -99.9 -99.99 -9.99
2019/04/24 06:36 PDT    2.52   2.76    4  232    8  53.8  54.9 1014.3 -9.9 -9.999 -99.9 -99.99 -9.99
2019/04/24 06:42 PDT    2.39   2.62    2  258    8  54.0  54.9 1014.4 -9.9 -9.999 -99.9 -99.99 -9.99
2019/04/24 06:48 PDT    2.25   2.49    5  256    9  54.0  55.0 1014.5 -9.9 -9.999 -99.9 -99.99 -9.99
2019/04/24 06:54 PDT    2.12   2.36    2  277    6  54.1  54.9 1014.6 -9.9 -9.999 -99.9 -99.99 -9.99
2019/04/24 07:00 PDT    1.99   2.24    3  289    7  54.3  54.9 1014.6 -9.9 -9.999 -99.9 -99.99 -9.99
2019/04/24 07:06 PDT    1.86   2.12    6  270    8  54.3  54.9 1014.7 -9.9 -9.999 -99.9 -99.99 -9.99
2019/04/24 07:12 PDT    1.74   2.00    5  257    8  54.5  55.0 1014.7 -9.9 -9.999 -99.9 -99.99 -9.99
2019/04/24 07:18 PDT    1.61   1.89    5  262    7  54.7  55.0 1014.7 -9.9 -9.999 -99.9 -99.99 -9.99
2019/04/24 07:24 PDT    1.49   1.75    4  257    7  55.0  55.0 1014.7 -9.9 -9.999 -99.9 -99.99 -9.99
2019/04/24 07:30 PDT    1.37   1.64    4  273    6  55.2  55.2 1014.7 -9.9 -9.999 -99.9 -99.99 -9.99
2019/04/24 07:36 PDT    1.25   1.53    5  234    8  55.6  55.4 1014.8 -9.9 -9.999 -99.9 -99.99 -9.99
2019/04/24 07:42 PDT    1.14   1.44    4  250    7  55.8  55.4 1014.8 -9.9 -9.999 -99.9 -99.99 -9.99
2019/04/24 07:48 PDT    1.02   1.31    4  256    7  55.8  55.6 1014.9 -9.9 -9.999 -99.9 -99.99 -9.99
2019/04/24 07:54 PDT    0.92   1.17    4  247    7  56.1  55.6 1014.8 -9.9 -9.999 -99.9 -99.99 -9.99
2019/04/24 08:00 PDT    0.81   1.07    4  257    6  56.5  55.8 1014.9 -9.9 -9.999 -99.9 -99.99 -9.99
2019/04/24 08:06 PDT    0.71   0.99    6  257    8  56.7  55.8 1014.9 -9.9 -9.999 -99.9 -99.99 -9.99
2019/04/24 08:12 PDT    0.62   0.91    5  251    7  56.8  55.9 1014.9 -9.9 -9.999 -99.9 -99.99 -9.99
2019/04/24 08:18 PDT    0.53   0.84    5  250    6  57.4  56.3 1014.9 -9.9 -9.999 -99.9 -99.99 -9.99
2019/04/24 08:24 PDT    0.44   0.76    5  254    7  57.4  56.3 1014.9 -9.9 -9.999 -99.9 -99.99 -9.99
2019/04/24 08:30 PDT    0.36   0.71    7  254    9  57.2  56.5 1014.9 -9.9 -9.999 -99.9 -99.99 -9.99
2019/04/24 08:36 PDT    0.28   0.70    3  261    9  57.4  56.5 1015.0 -9.9 -9.999 -99.9 -99.99 -9.99
2019/04/24 08:42 PDT    0.21   0.63    5  257   10  57.2  56.7 1015.0 -9.9 -9.999 -99.9 -99.99 -9.99
2019/04/24 08:48 PDT    0.15   0.62    4  231    7  57.2  56.7 1015.1 -9.9 -9.999 -99.9 -99.99 -9.99
2019/04/24 08:54 PDT    0.08   0.59    6  232   10  57.0  56.8 1015.1 -9.9 -9.999 -99.9 -99.99 -9.99
2019/04/24 09:00 PDT    0.03   0.53    7  242   11  56.7  57.4 1015.1 -9.9 -9.999 -99.9 -99.99 -9.99
2019/04/24 09:06 PDT   -0.02   0.49    7  250   11  56.7  57.6 1015.2 -9.9 -9.999 -99.9 -99.99 -9.99
2019/04/24 09:12 PDT   -0.07   0.43    6  239    8  57.4  57.7 1015.1 -9.9 -9.999 -99.9 -99.99 -9.99
2019/04/24 09:18 PDT   -0.11   0.36    5  248    9  57.7  57.9 1015.1 -9.9 -9.999 -99.9 -99.99 -9.99
2019/04/24 09:24 PDT   -0.15   0.32    6  239    8  58.1  57.9 1015.1 -9.9 -9.999 -99.9 -99.99 -9.99
2019/04/24 09:30 PDT   -0.18   0.33    7  250    9  58.5  58.3 1015.1 -9.9 -9.999 -99.9 -99.99 -9.99
2019/04/24 09:36 PDT   -0.20   0.31    8  248   10  58.6  58.3 1015.0 -9.9 -9.999 -99.9 -99.99 -9.99
2019/04/24 09:42 PDT   -0.22   0.29    6  256    9  59.2  58.3 1015.0 -9.9 -9.999 -99.9 -99.99 -9.99
2019/04/24 09:48 PDT   -0.24   0.27    5  256    9  59.9  58.5 1015.0 -9.9 -9.999 -99.9 -99.99 -9.99
2019/04/24 09:54 PDT   -0.25   0.26    8  245    9  59.5  58.6 1015.0 -9.9 -9.999 -99.9 -99.99 -9.99
2019/04/24 10:00 PDT   -0.25   0.28    7  239    8  59.7  58.6 1015.0 -9.9 -9.999 -99.9 -99.99 -9.99
2019/04/24 10:06 PDT   -0.26   0.30    6  246    8  60.1  58.8 1015.0 -9.9 -9.999 -99.9 -99.99 -9.99
2019/04/24 10:12 PDT   -0.25   0.30    5  241    7  60.6  59.0 1015.0 -9.9 -9.999 -99.9 -99.99 -9.99
2019/04/24 10:18 PDT   -0.24   0.30    5  246    8  61.3  59.2 1015.0 -9.9 -9.999 -99.9 -99.99 -9.99
2019/04/24 10:24 PDT   -0.23   0.33    4  245    6  62.4  59.2 1015.1 -9.9 -9.999 -99.9 -99.99 -9.99
2019/04/24 10:30 PDT   -0.21   0.35    5  246    7  62.1  59.2 1015.1 -9.9 -9.999 -99.9 -99.99 -9.99
2019/04/24 10:36 PDT   -0.19   0.37    7  253    9  61.7  59.2 1015.1 -9.9 -9.999 -99.9 -99.99 -9.99
2019/04/24 10:42 PDT   -0.17   0.41    8  246   10  61.5  59.4 1015.1 -9.9 -9.999 -99.9 -99.99 -9.99
2019/04/24 10:48 PDT   -0.14   0.41   10  250   11  61.0  59.5 1015.1 -9.9 -9.999 -99.9 -99.99 -9.99
2019/04/24 10:54 PDT   -0.10   0.43    8  242   12  60.6  59.7 1015.2 -9.9 -9.999 -99.9 -99.99 -9.99
2019/04/24 11:00 PDT   -0.06   0.43   10  244   13  60.3  59.7 1015.2 -9.9 -9.999 -99.9 -99.99 -9.99
2019/04/24 11:06 PDT   -0.02   0.46   12  239   15  60.4  59.7 1015.2 -9.9 -9.999 -99.9 -99.99 -9.99
2019/04/24 11:12 PDT    0.02   0.48   10  240   14  61.0  59.9 1015.3 -9.9 -9.999 -99.9 -99.99 -9.99
2019/04/24 11:18 PDT    0.07   0.52   12  235   16  61.2  59.9 1015.3 -9.9 -9.999 -99.9 -99.99 -9.99
2019/04/24 11:24 PDT    0.13   0.58   12  240   16  60.6  59.7 1015.3 -9.9 -9.999 -99.9 -99.99 -9.99
2019/04/24 11:30 PDT    0.18   0.61   10  232   15  60.3  59.7 1015.3 -9.9 -9.999 -99.9 -99.99 -9.99
2019/04/24 11:36 PDT    0.24   0.66   11  231   14  59.9  59.5 1015.3 -9.9 -9.999 -99.9 -99.99 -9.99
2019/04/24 11:42 PDT    0.31   0.70   11  242   17  59.4  58.6 1015.2 -9.9 -9.999 -99.9 -99.99 -9.99
2019/04/24 11:48 PDT    0.37   0.75   11  244   15  59.5  58.5 1015.2 -9.9 -9.999 -99.9 -99.99 -9.99
2019/04/24 11:54 PDT    0.44   0.81   10  233   15  60.4  58.5 1015.1 -9.9 -9.999 -99.9 -99.99 -9.99
2019/04/24 12:00 PDT    0.51   0.86   10  243   15  60.4  58.5 1015.1 -9.9 -9.999 -99.9 -99.99 -9.99
2019/04/24 12:06 PDT    0.58   0.95   11  236   15  60.3  58.5 1015.1 -9.9 -9.999 -99.9 -99.99 -9.99
2019/04/24 12:12 PDT    0.66   1.05   11  235   15  60.3  58.3 1015.1 -9.9 -9.999 -99.9 -99.99 -9.99
2019/04/24 12:18 PDT    0.74   1.16   10  233   16  60.8  58.6 1015.0 -9.9 -9.999 -99.9 -99.99 -9.99
2019/04/24 12:24 PDT    0.82   1.23   10  239   13  61.5  58.8 1015.0 -9.9 -9.999 -99.9 -99.99 -9.99
2019/04/24 12:30 PDT    0.90   1.30   11  240   14  61.3  59.2 1014.9 -9.9 -9.999 -99.9 -99.99 -9.99
2019/04/24 12:36 PDT    0.98   1.37   12  242   17  61.0  59.4 1014.9 -9.9 -9.999 -99.9 -99.99 -9.99
2019/04/24 12:42 PDT    1.07   1.46   11  247   17  60.8  59.5 1014.9 -9.9 -9.999 -99.9 -99.99 -9.99
2019/04/24 12:48 PDT    1.15   1.55   11  234   17  60.4  59.5 1014.9 -9.9 -9.999 -99.9 -99.99 -9.99
2019/04/24 12:54 PDT    1.24   1.64   12  241   18  60.1  59.9 1014.8 -9.9 -9.999 -99.9 -99.99 -9.99
2019/04/24 13:00 PDT    1.33   1.74   12  239   16  59.5  60.3 1014.9 -9.9 -9.999 -99.9 -99.99 -9.99
2019/04/24 13:06 PDT    1.42   1.83   12  244   18  58.8  60.4 1014.8 -9.9 -9.999 -99.9 -99.99 -9.99
2019/04/24 13:12 PDT    1.51   1.91   12  243   19  59.2  60.4 1014.8 -9.9 -9.999 -99.9 -99.99 -9.99
2019/04/24 13:18 PDT    1.60   2.01   11  253   18  59.5  60.4 1014.8 -9.9 -9.999 -99.9 -99.99 -9.99
2019/04/24 13:24 PDT    1.69   2.13   11  252   18  60.1  60.4 1014.8 -9.9 -9.999 -99.9 -99.99 -9.99
2019/04/24 13:30 PDT    1.78   2.20   10  257   14  60.4  60.4 1014.8 -9.9 -9.999 -99.9 -99.99 -9.99
2019/04/24 13:36 PDT    1.87   2.27   13  256   19  59.9  60.4 1014.7 -9.9 -9.999 -99.9 -99.99 -9.99
2019/04/24 13:42 PDT    1.96   2.34   11  244   18  60.4  60.6 1014.7 -9.9 -9.999 -99.9 -99.99 -9.99
2019/04/24 13:48 PDT    2.05   2.42   14  244   19  59.9  60.6 1014.6 -9.9 -9.999 -99.9 -99.99 -9.99
2019/04/24 13:54 PDT    2.14   2.52   11  247   18  60.3  59.9 1014.6 -9.9 -9.999 -99.9 -99.99 -9.99
2019/04/24 14:00 PDT    2.23   2.63   11  254   18  60.6  59.5 1014.5 -9.9 -9.999 -99.9 -99.99 -9.99
2019/04/24 14:06 PDT    2.32   2.72   12  257   18  60.6  59.4 1014.5 -9.9 -9.999 -99.9 -99.99 -9.99
2019/04/24 14:12 PDT    2.40   2.83   13  258   18  60.4  59.4 1014.4 -9.9 -9.999 -99.9 -99.99 -9.99
2019/04/24 14:18 PDT    2.49   2.92   15  254   21  60.3  59.4 1014.4 -9.9 -9.999 -99.9 -99.99 -9.99
2019/04/24 14:24 PDT    2.58   2.97   14  259   20  59.9  59.5 1014.4 -9.9 -9.999 -99.9 -99.99 -9.99
2019/04/24 14:30 PDT    2.67   3.04   14  249   21  60.1  59.2 1014.3 -9.9 -9.999 -99.9 -99.99 -9.99
2019/04/24 14:36 PDT    2.75   3.11   13  253   18  60.1  59.4 1014.3 -9.9 -9.999 -99.9 -99.99 -9.99
2019/04/24 14:42 PDT    2.84   3.18   12  246   18  60.3  59.5 1014.2 -9.9 -9.999 -99.9 -99.99 -9.99
2019/04/24 14:48 PDT    2.92   3.24   16  243   22  59.7  59.5 1014.2 -9.9 -9.999 -99.9 -99.99 -9.99
2019/04/24 14:54 PDT    3.01   3.30   15  247   23  59.4  59.2 1014.2 -9.9 -9.999 -99.9 -99.99 -9.99
2019/04/24 15:00 PDT    3.09   3.34   16  241   22  59.2  58.8 1014.2 -9.9 -9.999 -99.9 -99.99 -9.99
2019/04/24 15:06 PDT    3.17   3.39   15  245   21  59.0  58.3 1014.1 -9.9 -9.999 -99.9 -99.99 -9.99
2019/04/24 15:12 PDT    3.25   3.47   13  241   21  59.4  57.9 1014.1 -9.9 -9.999 -99.9 -99.99 -9.99
2019/04/24 15:18 PDT    3.32   3.57   17  244   23  58.8  57.7 1014.0 -9.9 -9.999 -99.9 -99.99 -9.99
2019/04/24 15:24 PDT    3.40   3.66   17  241   22  58.5  57.2 1014.0 -9.9 -9.999 -99.9 -99.99 -9.99
2019/04/24 15:30 PDT    3.47   3.73   14  244   21  58.8  56.3 1014.0 -9.9 -9.999 -99.9 -99.99 -9.99
2019/04/24 15:36 PDT    3.54   3.78   13  249   21  58.6  55.9 1013.9 -9.9 -9.999 -99.9 -99.99 -9.99
2019/04/24 15:42 PDT    3.61   3.83   14  238   23  58.8  55.4 1013.9 -9.9 -9.999 -99.9 -99.99 -9.99
2019/04/24 15:48 PDT    3.68   3.91   14  237   21  58.8  54.9 1013.8 -9.9 -9.999 -99.9 -99.99 -9.99
2019/04/24 15:54 PDT    3.74   3.97   15  238   19  58.6  54.9 1013.7 -9.9 -9.999 -99.9 -99.99 -9.99
2019/04/24 16:00 PDT    3.80   4.02   12  245   22  58.8  54.9 1013.6 -9.9 -9.999 -99.9 -99.99 -9.99
2019/04/24 16:06 PDT    3.86   4.08   14  243   20  58.8  55.0 1013.6 -9.9 -9.999 -99.9 -99.99 -9.99
2019/04/24 16:12 PDT    3.92   4.12   12  244   20  58.8  54.7 1013.5 -9.9 -9.999 -99.9 -99.99 -9.99
2019/04/24 16:18 PDT    3.97   4.17   12  245   20  58.6  54.3 1013.5 -9.9 -9.999 -99.9 -99.99 -9.99
2019/04/24 16:24 PDT    4.02   4.20   13  247   21  58.5  54.1 1013.4 -9.9 -9.999 -99.9 -99.99 -9.99
2019/04/24 16:30 PDT    4.06   4.25   14  242   22  58.3  54.1 1013.4 -9.9 -9.999 -99.9 -99.99 -9.99
2019/04/24 16:36 PDT    4.11   4.31   14  248   23  58.1  54.1 1013.4 -9.9 -9.999 -99.9 -99.99 -9.99
2019/04/24 16:42 PDT    4.15   4.34   16  243   24  57.9  54.1 1013.2 -9.9 -9.999 -99.9 -99.99 -9.99
2019/04/24 16:48 PDT    4.18   4.35   16  246   22  57.7  54.1 1013.2 -9.9 -9.999 -99.9 -99.99 -9.99
2019/04/24 16:54 PDT    4.21   4.39   17  243   24  57.7  54.0 1013.2 -9.9 -9.999 -99.9 -99.99 -9.99
2019/04/24 17:00 PDT    4.24   4.42   17  240   23  57.7  54.0 1013.2 -9.9 -9.999 -99.9 -99.99 -9.99
2019/04/24 17:06 PDT    4.26   4.44   17  247   24  57.7  54.1 1013.2 -9.9 -9.999 -99.9 -99.99 -9.99
2019/04/24 17:12 PDT    4.28   4.46   17  245   24  57.6  54.0 1013.1 -9.9 -9.999 -99.9 -99.99 -9.99
2019/04/24 17:18 PDT    4.30   4.47 -999 -999 -999 -99.9 -99.9 -999.9 -9.9 -9.999 -99.9 -99.99 -9.99
2019/04/24 17:24 PDT    4.31   4.48   15  244   24  57.6  54.3 1013.1 -9.9 -9.999 -99.9 -99.99 -9.99
2019/04/24 17:30 PDT    4.32   4.47   17  243   23  57.6  54.3 1013.0 -9.9 -9.999 -99.9 -99.99 -9.99
2019/04/24 17:36 PDT    4.33   4.52   17  241   25  57.4  54.3 1013.0 -9.9 -9.999 -99.9 -99.99 -9.99
2019/04/24 17:42 PDT    4.33   4.53   17  246   25  57.4  54.3 1012.9 -9.9 -9.999 -99.9 -99.99 -9.99
2019/04/24 17:48 PDT    4.33   4.53   19  245   27  57.2  54.3 1012.9 -9.9 -9.999 -99.9 -99.99 -9.99
2019/04/24 17:54 PDT    4.32   4.51   19  243   24  57.2  54.1 1012.9 -9.9 -9.999 -99.9 -99.99 -9.99
2019/04/24 18:00 PDT    4.31   4.49   18  245   25  57.0  54.1 1012.8 -9.9 -9.999 -99.9 -99.99 -9.99
2019/04/24 18:06 PDT    4.30   4.49   16  247   24  57.0  54.1 1012.8 -9.9 -9.999 -99.9 -99.99 -9.99
2019/04/24 18:12 PDT    4.29   4.48   18  241   24  56.7  54.0 1012.7 -9.9 -9.999 -99.9 -99.99 -9.99
2019/04/24 18:18 PDT    4.27   4.46   17  243   25  56.7  53.6 1012.7 -9.9 -9.999 -99.9 -99.99 -9.99
2019/04/24 18:24 PDT    4.25   4.44   18  246   25  56.3  53.4 1012.7 -9.9 -9.999 -99.9 -99.99 -9.99
2019/04/24 18:30 PDT    4.23   4.41   17  243   24  56.5  53.4 1012.6 -9.9 -9.999 -99.9 -99.99 -9.99
2019/04/24 18:36 PDT    4.20   4.40   16  243   24  56.3  53.4 1012.5 -9.9 -9.999 -99.9 -99.99 -9.99
2019/04/24 18:42 PDT    4.17   4.41   17  248   25  56.1  53.6 1012.5 -9.9 -9.999 -99.9 -99.99 -9.99
2019/04/24 18:48 PDT    4.14   4.39   16  241   26  55.9  53.8 1012.5 -9.9 -9.999 -99.9 -99.99 -9.99
2019/04/24 18:54 PDT    4.11   4.35   15  242   22  55.9  54.0 1012.6 -9.9 -9.999 -99.9 -99.99 -9.99
2019/04/24 19:00 PDT    4.08   4.32   14  240   20  55.8  54.0 1012.7 -9.9 -9.999 -99.9 -99.99 -9.99
2019/04/24 19:06 PDT    4.04   4.27   11  239   18  55.8  54.0 1012.8 -9.9 -9.999 -99.9 -99.99 -9.99
2019/04/24 19:12 PDT    4.00   4.25   10  244   19  55.6  54.3 1012.9 -9.9 -9.999 -99.9 -99.99 -9.99
2019/04/24 19:18 PDT    3.96   4.23    9  241   18  55.6  54.7 1013.0 -9.9 -9.999 -99.9 -99.99 -9.99
2019/04/24 19:24 PDT    3.92   4.19    6  222   13  55.4  56.1 1013.0 -9.9 -9.999 -99.9 -99.99 -9.99
2019/04/24 19:30 PDT    3.88   4.15    7  238   11  55.2  56.3 1013.1 -9.9 -9.999 -99.9 -99.99 -9.99
2019/04/24 19:36 PDT    3.84   4.13    4  208   14  55.2  56.5 1013.2 -9.9 -9.999 -99.9 -99.99 -9.99
2019/04/24 19:42 PDT    3.80   4.11    5  227   13  55.0  56.5 1013.2 -9.9 -9.999 -99.9 -99.99 -9.99
2019/04/24 19:48 PDT    3.75   4.06    4  227    9  55.0  56.3 1013.2 -9.9 -9.999 -99.9 -99.99 -9.99
2019/04/24 19:54 PDT    3.71   4.00    7  223   15  54.9  56.3 1013.1 -9.9 -9.999 -99.9 -99.99 -9.99
2019/04/24 20:00 PDT    3.67   3.94    5  233   15  54.7  56.3 1013.1 -9.9 -9.999 -99.9 -99.99 -9.99
2019/04/24 20:06 PDT    3.62   3.90    5  223   11  54.7  56.5 1013.1 -9.9 -9.999 -99.9 -99.99 -9.99
2019/04/24 20:12 PDT    3.58   3.87    6  207   13  54.7  56.5 1013.1 -9.9 -9.999 -99.9 -99.99 -9.99
2019/04/24 20:18 PDT    3.54   3.82    3  264   11  54.5  56.3 1013.1 -9.9 -9.999 -99.9 -99.99 -9.99
2019/04/24 20:24 PDT    3.50   3.81    5  207   11  54.5  56.1 1013.1 -9.9 -9.999 -99.9 -99.99 -9.99
2019/04/24 20:30 PDT    3.46   3.80    2  176    7  54.5  56.1 1013.1 -9.9 -9.999 -99.9 -99.99 -9.99
2019/04/24 20:36 PDT    3.42   3.77    5  187    9  54.3  56.1 1013.1 -9.9 -9.999 -99.9 -99.99 -9.99
2019/04/24 20:42 PDT    3.38   3.76    4  220   11  54.3  55.9 1013.2 -9.9 -9.999 -99.9 -99.99 -9.99
2019/04/24 20:48 PDT    3.34   3.74    4  221   10  54.3  55.9 1013.2 -9.9 -9.999 -99.9 -99.99 -9.99
2019/04/24 20:54 PDT    3.31   3.70    5  209   13  54.1  55.9 1013.3 -9.9 -9.999 -99.9 -99.99 -9.99
2019/04/24 21:00 PDT    3.28   3.68    6  227   14  54.1  55.9 1013.4 -9.9 -9.999 -99.9 -99.99 -9.99
2019/04/24 21:06 PDT    3.25   3.65    6  220   14  54.1  55.8 1013.5 -9.9 -9.999 -99.9 -99.99 -9.99
2019/04/24 21:12 PDT    3.22   3.61    3  273   10  54.1  55.8 1013.6 -9.9 -9.999 -99.9 -99.99 -9.99
2019/04/24 21:18 PDT    3.19   3.58    4  216    9  54.0  55.6 1013.7 -9.9 -9.999 -99.9 -99.99 -9.99
2019/04/24 21:24 PDT    3.16   3.57    2  206    8  54.0  55.4 1013.8 -9.9 -9.999 -99.9 -99.99 -9.99
2019/04/24 21:30 PDT    3.14   3.56    4  222    8  54.0  55.8 1013.8 -9.9 -9.999 -99.9 -99.99 -9.99
2019/04/24 21:36 PDT    3.12   3.55    3  205    8  54.0  55.8 1013.8 -9.9 -9.999 -99.9 -99.99 -9.99
2019/04/24 21:42 PDT    3.10   3.54    4  195    8  53.8  55.6 1013.8 -9.9 -9.999 -99.9 -99.99 -9.99
2019/04/24 21:48 PDT    3.09   3.52    3  209    8  53.8  55.4 1013.8 -9.9 -9.999 -99.9 -99.99 -9.99
2019/04/24 21:54 PDT    3.07   3.52    4  246    8  53.8  55.2 1013.8 -9.9 -9.999 -99.9 -99.99 -9.99
2019/04/24 22:00 PDT    3.06   3.48    4  281    6  53.8  55.0 1013.9 -9.9 -9.999 -99.9 -99.99 -9.99
2019/04/24 22:06 PDT    3.05   3.48    3   92    6  53.6  54.9 1013.9 -9.9 -9.999 -99.9 -99.99 -9.99
2019/04/24 22:12 PDT    3.05   3.47    4  169    6  53.6  54.9 1014.0 -9.9 -9.999 -99.9 -99.99 -9.99
2019/04/24 22:18 PDT    3.04   3.46    4  229   10  53.6  54.9 1014.0 -9.9 -9.999 -99.9 -99.99 -9.99
2019/04/24 22:24 PDT    3.04   3.49    2  146    7  53.4  54.9 1014.1 -9.9 -9.999 -99.9 -99.99 -9.99
2019/04/24 22:30 PDT    3.04   3.52    4  171    7  53.4  54.9 1014.1 -9.9 -9.999 -99.9 -99.99 -9.99
2019/04/24 22:36 PDT    3.05   3.53    3  200    6  53.4  54.9 1014.1 -9.9 -9.999 -99.9 -99.99 -9.99
2019/04/24 22:42 PDT    3.05   3.57    4  214    7  53.4  54.9 1014.1 -9.9 -9.999 -99.9 -99.99 -9.99
2019/04/24 22:48 PDT    3.06   3.59    3  214    9  53.4  54.7 1014.1 -9.9 -9.999 -99.9 -99.99 -9.99
2019/04/24 22:54 PDT    3.08   3.61    1  118    6  53.4  55.2 1014.1 -9.9 -9.999 -99.9 -99.99 -9.99
2019/04/24 23:00 PDT    3.09   3.62    4  204    7  53.4  55.4 1014.1 -9.9 -9.999 -99.9 -99.99 -9.99
2019/04/24 23:06 PDT    3.11   3.62    5  228   11  53.4  55.9 1014.2 -9.9 -9.999 -99.9 -99.99 -9.99
2019/04/24 23:12 PDT    3.13   3.63    3  206   10  53.4  56.3 1014.2 -9.9 -9.999 -99.9 -99.99 -9.99
2019/04/24 23:18 PDT    3.15   3.66    3  203   12  53.4  56.3 1014.2 -9.9 -9.999 -99.9 -99.99 -9.99
2019/04/24 23:24 PDT    3.17   3.71    3  220   10  53.2  56.5 1014.2 -9.9 -9.999 -99.9 -99.99 -9.99
2019/04/24 23:30 PDT    3.20   3.75    6  220   10  53.2  56.5 1014.2 -9.9 -9.999 -99.9 -99.99 -9.99
2019/04/24 23:36 PDT    3.23   3.77    6  214    9  53.2  56.5 1014.2 -9.9 -9.999 -99.9 -99.99 -9.99
2019/04/24 23:42 PDT    3.26   3.82    5  235   10  53.2  56.5 1014.2 -9.9 -9.999 -99.9 -99.99 -9.99
2019/04/24 23:48 PDT    3.30   3.87    4  232    9  53.2  56.5 1014.2 -9.9 -9.999 -99.9 -99.99 -9.99
2019/04/24 23:54 PDT    3.33   3.91    4  233    8  53.1  56.5 1014.2 -9.9 -9.999 -99.9 -99.99 -9.99
2019/04/25 00:00 PDT    3.37   3.93    6  230   11  53.1  56.3 1014.2 -9.9 -9.999 -99.9 -99.99 -9.99
2019/04/25 00:06 PDT    3.41   3.94    7  226   11  53.1  56.3 1014.3 -9.9 -9.999 -99.9 -99.99 -9.99
2019/04/25 00:12 PDT    3.46   3.96    2  206    8  53.1  56.3 1014.3 -9.9 -9.999 -99.9 -99.99 -9.99
2019/04/25 00:18 PDT    3.50   3.99    5  233    8  53.1  56.3 1014.3 -9.9 -9.999 -99.9 -99.99 -9.99
2019/04/25 00:24 PDT    3.55   4.06    5  225    9  53.1  56.3 1014.3 -9.9 -9.999 -99.9 -99.99 -9.99
2019/04/25 00:30 PDT    3.60   4.12    6  221   10  52.9  56.3 1014.2 -9.9 -9.999 -99.9 -99.99 -9.99
2019/04/25 00:36 PDT    3.65   4.16    5  245    9  52.9  56.3 1014.3 -9.9 -9.999 -99.9 -99.99 -9.99
2019/04/25 00:42 PDT    3.70   4.22    4  230    9  52.9  56.3 1014.4 -9.9 -9.999 -99.9 -99.99 -9.99
2019/04/25 00:48 PDT    3.75   4.27    6  222   10  52.9  56.3 1014.4 -9.9 -9.999 -99.9 -99.99 -9.99
2019/04/25 00:54 PDT    3.80   4.32    6  232   10  52.7  56.3 1014.4 -9.9 -9.999 -99.9 -99.99 -9.99
2019/04/25 01:00 PDT    3.86   4.34    3  244   11  52.7  55.9 1014.4 -9.9 -9.999 -99.9 -99.99 -9.99
2019/04/25 01:06 PDT    3.91   4.36    4  225   10  52.7  55.9 1014.3 -9.9 -9.999 -99.9 -99.99 -9.99
2019/04/25 01:12 PDT    3.96   4.39    3  231   10  52.7  55.9 1014.3 -9.9 -9.999 -99.9 -99.99 -9.99
2019/04/25 01:18 PDT    4.02   4.42    6  232    8  52.7  55.9 1014.3 -9.9 -9.999 -99.9 -99.99 -9.99
2019/04/25 01:24 PDT    4.07   4.49    4  211    6  52.7  55.9 1014.2 -9.9 -9.999 -99.9 -99.99 -9.99
2019/04/25 01:30 PDT    4.13   4.57    4  225    7  52.7  55.9 1014.3 -9.9 -9.999 -99.9 -99.99 -9.99
2019/04/25 01:36 PDT    4.18   4.63    5  239    8  52.7  55.9 1014.3 -9.9 -9.999 -99.9 -99.99 -9.99
2019/04/25 01:42 PDT    4.23   4.71    5  230    8  52.5  55.9 1014.2 -9.9 -9.999 -99.9 -99.99 -9.99
2019/04/25 01:48 PDT    4.28   4.77    4  234    6  52.5  55.9 1014.2 -9.9 -9.999 -99.9 -99.99 -9.99
2019/04/25 01:54 PDT    4.33   4.80    5  223   10  52.5  55.9 1014.2 -9.9 -9.999 -99.9 -99.99 -9.99
2019/04/25 02:00 PDT    4.38   4.83    3  220    9  52.3  56.1 1014.2 -9.9 -9.999 -99.9 -99.99 -9.99
2019/04/25 02:06 PDT    4.43   4.86    5  247    8  52.3  56.1 1014.1 -9.9 -9.999 -99.9 -99.99 -9.99
2019/04/25 02:12 PDT    4.48   4.90    4  240    9  52.3  56.1 1014.1 -9.9 -9.999 -99.9 -99.99 -9.99
2019/04/25 02:18 PDT    4.53   4.95    4  240   10  52.3  56.1 1014.1 -9.9 -9.999 -99.9 -99.99 -9.99
2019/04/25 02:24 PDT    4.57   4.98    5  206    9  52.3  56.1 1014.1 -9.9 -9.999 -99.9 -99.99 -9.99
2019/04/25 02:30 PDT    4.61   5.00    5  212   10  52.3  56.1 1014.1 -9.9 -9.999 -99.9 -99.99 -9.99
2019/04/25 02:36 PDT    4.65   5.04    3  237    7  52.3  55.9 1014.0 -9.9 -9.999 -99.9 -99.99 -9.99
2019/04/25 02:42 PDT    4.69   5.08    7  225   11  52.2  56.1 1014.1 -9.9 -9.999 -99.9 -99.99 -9.99
2019/04/25 02:48 PDT    4.73   5.12    5  234    9  52.2  56.1 1014.1 -9.9 -9.999 -99.9 -99.99 -9.99
2019/04/25 02:54 PDT    4.76   5.14    4  236   10  52.2  56.1 1014.1 -9.9 -9.999 -99.9 -99.99 -9.99
2019/04/25 03:00 PDT    4.79   5.17    6  223   13  52.0  56.1 1014.1 -9.9 -9.999 -99.9 -99.99 -9.99
2019/04/25 03:06 PDT    4.82   5.18    6  230   11  52.0  55.9 1014.1 -9.9 -9.999 -99.9 -99.99 -9.99
2019/04/25 03:12 PDT    4.85   5.19    6  240   10  52.0  55.8 1014.1 -9.9 -9.999 -99.9 -99.99 -9.99
2019/04/25 03:18 PDT    4.87   5.20    5  236   11  52.0  55.8 1014.1 -9.9 -9.999 -99.9 -99.99 -9.99
2019/04/25 03:24 PDT    4.89   5.23    4  225    9  52.0  55.6 1014.0 -9.9 -9.999 -99.9 -99.99 -9.99
2019/04/25 03:30 PDT    4.91   5.28    5  221    8  52.0  55.6 1014.0 -9.9 -9.999 -99.9 -99.99 -9.99
2019/04/25 03:36 PDT    4.92   5.29    6  240    9  52.0  55.4 1014.0 -9.9 -9.999 -99.9 -99.99 -9.99
2019/04/25 03:42 PDT    4.93   5.28    4  231    9  52.0  55.4 1014.0 -9.9 -9.999 -99.9 -99.99 -9.99
2019/04/25 03:48 PDT    4.94   5.27    4  234    8  52.0  55.2 1014.1 -9.9 -9.999 -99.9 -99.99 -9.99
2019/04/25 03:54 PDT    4.95   5.27    5  231    8  52.0  55.0 1014.0 -9.9 -9.999 -99.9 -99.99 -9.99
2019/04/25 04:00 PDT    4.95   5.26    7  217   10  52.0  55.0 1014.0 -9.9 -9.999 -99.9 -99.99 -9.99
2019/04/25 04:06 PDT    4.94   5.25    6  230   11  52.0  55.0 1014.1 -9.9 -9.999 -99.9 -99.99 -9.99
2019/04/25 04:12 PDT    4.94   5.22    4  227   10  52.0  55.0 1014.1 -9.9 -9.999 -99.9 -99.99 -9.99
2019/04/25 04:18 PDT    4.92   5.18    5  212    8  52.0  54.9 1014.1 -9.9 -9.999 -99.9 -99.99 -9.99
2019/04/25 04:24 PDT    4.91   5.17    8  231   12  52.0  54.7 1014.1 -9.9 -9.999 -99.9 -99.99 -9.99
2019/04/25 04:30 PDT    4.89   5.18    4  238    9  52.0  54.7 1014.1 -9.9 -9.999 -99.9 -99.99 -9.99
2019/04/25 04:36 PDT    4.86   5.15    4  198    8  52.0  54.5 1014.1 -9.9 -9.999 -99.9 -99.99 -9.99
2019/04/25 04:42 PDT    4.83   5.13    7  247    9  52.0  54.3 1014.1 -9.9 -9.999 -99.9 -99.99 -9.99
2019/04/25 04:48 PDT    4.80   5.10    6  229   10  52.0  54.1 1014.1 -9.9 -9.999 -99.9 -99.99 -9.99
2019/04/25 04:54 PDT    4.76   5.07    3  225    6  52.0  54.0 1014.1 -9.9 -9.999 -99.9 -99.99 -9.99
2019/04/25 05:00 PDT    4.72   5.04    4  253   10  52.0  54.0 1014.1 -9.9 -9.999 -99.9 -99.99 -9.99
2019/04/25 05:06 PDT    4.67   5.00    6  256    9  51.8  54.0 1014.1 -9.9 -9.999 -99.9 -99.99 -9.99
2019/04/25 05:12 PDT    4.62   4.92    4  235   13  51.8  54.0 1014.1 -9.9 -9.999 -99.9 -99.99 -9.99
2019/04/25 05:18 PDT    4.56   4.87    7  245   12  51.8  53.8 1014.2 -9.9 -9.999 -99.9 -99.99 -9.99
2019/04/25 05:24 PDT    4.50   4.83    4  231   10  51.8  53.6 1014.2 -9.9 -9.999 -99.9 -99.99 -9.99
2019/04/25 05:30 PDT    4.44   4.78    4  234    8  52.0  53.2 1014.2 -9.9 -9.999 -99.9 -99.99 -9.99
2019/04/25 05:36 PDT    4.37   4.71    8  229   11  51.8  53.1 1014.2 -9.9 -9.999 -99.9 -99.99 -9.99
2019/04/25 05:42 PDT    4.29   4.65    5  229   11  52.0  53.1 1014.2 -9.9 -9.999 -99.9 -99.99 -9.99
2019/04/25 05:48 PDT    4.22   4.58    7  217   12  51.8  53.2 1014.2 -9.9 -9.999 -99.9 -99.99 -9.99
2019/04/25 05:54 PDT    4.14   4.50    5  217   11  51.8  53.8 1014.2 -9.9 -9.999 -99.9 -99.99 -9.99
2019/04/25 06:00 PDT    4.05   4.42    6  253   10  51.8  54.0 1014.2 -9.9 -9.999 -99.9 -99.99 -9.99
2019/04/25 06:06 PDT    3.96   4.34    4  232   11  51.8  54.3 1014.2 -9.9 -9.999 -99.9 -99.99 -9.99
2019/04/25 06:12 PDT    3.87   4.24    4  242    7  51.8  54.7 1014.3 -9.9 -9.999 -99.9 -99.99 -9.99
2019/04/25 06:18 PDT    3.78   4.12    6  242   13  51.6  54.7 1014.3 -9.9 -9.999 -99.9 -99.99 -9.99
2019/04/25 06:24 PDT    3.68   4.04    6  236   12  51.6  54.7 1014.4 -9.9 -9.999 -99.9 -99.99 -9.99
2019/04/25 06:30 PDT    3.58   3.94    6  239   11  51.8  54.9 1014.4 -9.9 -9.999 -99.9 -99.99 -9.99
2019/04/25 06:36 PDT    3.48   3.83    4  245    9  51.8  55.0 1014.4 -9.9 -9.999 -99.9 -99.99 -9.99
2019/04/25 06:42 PDT    3.37   3.73    5  258   13  51.6  55.0 1014.5 -9.9 -9.999 -99.9 -99.99 -9.99
2019/04/25 06:48 PDT    3.26   3.64    6  249   12  51.6  55.0 1014.5 -9.9 -9.999 -99.9 -99.99 -9.99
2019/04/25 06:54 PDT    3.16   3.54    6  245   11  51.8  54.9 1014.6 -9.9 -9.999 -99.9 -99.99 -9.99
2019/04/25 07:00 PDT    3.05   3.45    5  242    9  51.8  54.9 1014.7 -9.9 -9.999 -99.9 -99.99 -9.99
2019/04/25 07:06 PDT    2.93   3.34    6  238   11  51.8  54.7 1014.8 -9.9 -9.999 -99.9 -99.99 -9.99
2019/04/25 07:12 PDT    2.82   3.23    4  236    9  51.8  54.5 1014.8 -9.9 -9.999 -99.9 -99.99 -9.99
2019/04/25 07:18 PDT    2.71   3.11    4  276    9  51.8  54.5 1014.9 -9.9 -9.999 -99.9 -99.99 -9.99
2019/04/25 07:24 PDT    2.59   2.98    5  246   10  51.8  54.7 1014.9 -9.9 -9.999 -99.9 -99.99 -9.99
2019/04/25 07:30 PDT    2.48   2.86    5  206   10  51.8  54.9 1015.0 -9.9 -9.999 -99.9 -99.99 -9.99
2019/04/25 07:36 PDT    2.37   2.75    7  245   10  51.8  55.2 1015.0 -9.9 -9.999 -99.9 -99.99 -9.99
2019/04/25 07:42 PDT    2.25   2.67    7  233   11  51.8  55.6 1015.0 -9.9 -9.999 -99.9 -99.99 -9.99
2019/04/25 07:48 PDT    2.14   2.56    5  260   10  52.0  56.1 1015.0 -9.9 -9.999 -99.9 -99.99 -9.99
2019/04/25 07:54 PDT    2.03   2.47    6  230    9  52.0  56.1 1015.1 -9.9 -9.999 -99.9 -99.99 -9.99
2019/04/25 08:00 PDT    1.91   2.36    4  245    9  52.0  56.1 1015.1 -9.9 -9.999 -99.9 -99.99 -9.99
2019/04/25 08:06 PDT    1.80   2.24    5  252    9  52.2  56.1 1015.1 -9.9 -9.999 -99.9 -99.99 -9.99
2019/04/25 08:12 PDT    1.70   2.11    5  252   10  52.2  56.1 1015.2 -9.9 -9.999 -99.9 -99.99 -9.99
2019/04/25 08:18 PDT    1.59   2.03    6  253   11  52.3  56.1 1015.1 -9.9 -9.999 -99.9 -99.99 -9.99
2019/04/25 08:24 PDT    1.48   1.95    3  238   11  52.3  56.3 1015.2 -9.9 -9.999 -99.9 -99.99 -9.99
2019/04/25 08:30 PDT    1.38   1.90    5  251   10  52.5  56.3 1015.2 -9.9 -9.999 -99.9 -99.99 -9.99
2019/04/25 08:36 PDT    1.28   1.82    5  236   10  52.5  56.1 1015.2 -9.9 -9.999 -99.9 -99.99 -9.99
2019/04/25 08:42 PDT    1.19   1.69    4  266    7  52.9  56.3 1015.1 -9.9 -9.999 -99.9 -99.99 -9.99
2019/04/25 08:48 PDT    1.09   1.59    6  221   11  53.2  56.3 1015.2 -9.9 -9.999 -99.9 -99.99 -9.99
2019/04/25 08:54 PDT    1.00   1.52    6  251   10  53.4  56.3 1015.1 -9.9 -9.999 -99.9 -99.99 -9.99
2019/04/25 09:00 PDT    0.91   1.46    8  252   11  53.4  56.5 1015.2 -9.9 -9.999 -99.9 -99.99 -9.99
2019/04/25 09:06 PDT    0.83   1.41    6  262   10  54.0  56.7 1015.2 -9.9 -9.999 -99.9 -99.99 -9.99
2019/04/25 09:12 PDT    0.75   1.32    8  242   11  54.0  56.8 1015.2 -9.9 -9.999 -99.9 -99.99 -9.99
2019/04/25 09:18 PDT    0.67   1.21    6  250   11  54.1  56.8 1015.2 -9.9 -9.999 -99.9 -99.99 -9.99
2019/04/25 09:24 PDT    0.60   1.12    7  211   14  53.8  56.8 1015.3 -9.9 -9.999 -99.9 -99.99 -9.99
2019/04/25 09:30 PDT    0.53   1.10    9  233   11  53.8  57.0 1015.2 -9.9 -9.999 -99.9 -99.99 -9.99
2019/04/25 09:36 PDT    0.47   1.10    5  243   10  54.0  57.0 1015.3 -9.9 -9.999 -99.9 -99.99 -9.99
2019/04/25 09:42 PDT    0.41   1.04    9  240   11  53.6  57.0 1015.4 -9.9 -9.999 -99.9 -99.99 -9.99
2019/04/25 09:48 PDT    0.35   0.99    7  254   11  53.6  57.2 1015.4 -9.9 -9.999 -99.9 -99.99 -9.99
2019/04/25 09:54 PDT    0.30   0.96    7  232   12  53.6  57.4 1015.4 -9.9 -9.999 -99.9 -99.99 -9.99
2019/04/25 10:00 PDT    0.25   0.93    9  237   12  53.6  57.6 1015.4 -9.9 -9.999 -99.9 -99.99 -9.99
2019/04/25 10:06 PDT    0.21   0.91    7  249   12  53.6  57.6 1015.5 -9.9 -9.999 -99.9 -99.99 -9.99
2019/04/25 10:12 PDT    0.17   0.86    5  268   12  53.6  57.9 1015.5 -9.9 -9.999 -99.9 -99.99 -9.99
2019/04/25 10:18 PDT    0.14   0.78    9  234   14  53.2  58.1 1015.5 -9.9 -9.999 -99.9 -99.99 -9.99
2019/04/25 10:24 PDT    0.11   0.74    9  246   15  53.4  58.1 1015.6 -9.9 -9.999 -99.9 -99.99 -9.99
2019/04/25 10:30 PDT    0.08   0.71    9  240   15  53.4  58.3 1015.7 -9.9 -9.999 -99.9 -99.99 -9.99
2019/04/25 10:36 PDT    0.06   0.71    8  227   11  53.6  58.5 1015.7 -9.9 -9.999 -99.9 -99.99 -9.99
2019/04/25 10:42 PDT    0.04   0.70    7  251   11  53.6  58.6 1015.7 -9.9 -9.999 -99.9 -99.99 -9.99
2019/04/25 10:48 PDT    0.03   0.69    6  253   17  53.6  58.8 1015.8 -9.9 -9.999 -99.9 -99.99 -9.99
2019/04/25 10:54 PDT    0.02   0.68    5  260   14  53.6  59.0 1015.8 -9.9 -9.999 -99.9 -99.99 -9.99
2019/04/25 11:00 PDT    0.02   0.66    6  265   13  53.2  59.0 1015.8 -9.9 -9.999 -99.9 -99.99 -9.99
2019/04/25 11:06 PDT    0.02   0.65    7  257   13  53.1  59.0 1015.8 -9.9 -9.999 -99.9 -99.99 -9.99
2019/04/25 11:12 PDT    0.02   0.68    6  250   13  53.1  58.8 1015.8 -9.9 -9.999 -99.9 -99.99 -9.99
2019/04/25 11:18 PDT    0.03   0.72    8  263   13  52.9  58.8 1015.8 -9.9 -9.999 -99.9 -99.99 -9.99
2019/04/25 11:24 PDT    0.04   0.75    4  251   13  52.9  58.8 1015.8 -9.9 -9.999 -99.9 -99.99 -9.99
2019/04/25 11:30 PDT    0.05   0.75    6  247   12  52.7  59.0 1015.7 -9.9 -9.999 -99.9 -99.99 -9.99
2019/04/25 11:36 PDT    0.07   0.77    6  239   12  52.9  59.0 1015.7 -9.9 -9.999 -99.9 -99.99 -9.99
2019/04/25 11:42 PDT    0.10   0.79    3  243    9  53.2  59.0 1015.7 -9.9 -9.999 -99.9 -99.99 -9.99
2019/04/25 11:48 PDT    0.12   0.82    6  240   13  53.1  59.2 1015.8 -9.9 -9.999 -99.9 -99.99 -9.99
2019/04/25 11:54 PDT    0.15   0.84    5  249   11  52.9  59.0 1015.7 -9.9 -9.999 -99.9 -99.99 -9.99
2019/04/25 12:00 PDT    0.19   0.85    7  249   11  52.9  59.0 1015.7 -9.9 -9.999 -99.9 -99.99 -9.99
2019/04/25 12:06 PDT    0.22   0.88    4  244    9  53.2  58.8 1015.7 -9.9 -9.999 -99.9 -99.99 -9.99
2019/04/25 12:12 PDT    0.27   0.92    5  251   11  53.2  59.0 1015.7 -9.9 -9.999 -99.9 -99.99 -9.99
2019/04/25 12:18 PDT    0.31   0.94    5  240   12  53.1  59.2 1015.7 -9.9 -9.999 -99.9 -99.99 -9.99
2019/04/25 12:24 PDT    0.36   0.98    7  240   14  52.9  59.4 1015.6 -9.9 -9.999 -99.9 -99.99 -9.99
2019/04/25 12:30 PDT    0.41   1.03    6  238   13  53.1  59.4 1015.6 -9.9 -9.999 -99.9 -99.99 -9.99
2019/04/25 12:36 PDT    0.46   1.06    8  232   13  53.1  59.4 1015.5 -9.9 -9.999 -99.9 -99.99 -9.99
2019/04/25 12:42 PDT    0.52   1.10    3  236   10  53.4  59.4 1015.5 -9.9 -9.999 -99.9 -99.99 -9.99
2019/04/25 12:48 PDT    0.58   1.15    4  266   13  53.2  59.4 1015.5 -9.9 -9.999 -99.9 -99.99 -9.99
2019/04/25 12:54 PDT    0.64   1.22    2  226    9  53.6  59.4 1015.5 -9.9 -9.999 -99.9 -99.99 -9.99
2019/04/25 13:00 PDT    0.70   1.29    7  233   11  53.4  59.5 1015.4 -9.9 -9.999 -99.9 -99.99 -9.99
2019/04/25 13:06 PDT    0.77   1.39    3  294   13  53.2  59.7 1015.4 -9.9 -9.999 -99.9 -99.99 -9.99
2019/04/25 13:12 PDT    0.84   1.47    5  248   13  53.2  59.9 1015.4 -9.9 -9.999 -99.9 -99.99 -9.99
2019/04/25 13:18 PDT    0.91   1.52   10  247   15  53.1  59.9 1015.5 -9.9 -9.999 -99.9 -99.99 -9.99
2019/04/25 13:24 PDT    0.98   1.59    8  233   15  53.2  59.7 1015.5 -9.9 -9.999 -99.9 -99.99 -9.99
2019/04/25 13:30 PDT    1.05   1.64    8  252   14  53.4  59.5 1015.5 -9.9 -9.999 -99.9 -99.99 -9.99
2019/04/25 13:36 PDT    1.13   1.70    5  266   16  53.2  59.5 1015.5 -9.9 -9.999 -99.9 -99.99 -9.99
2019/04/25 13:42 PDT    1.20   1.78    8  242   14  53.1  59.7 1015.5 -9.9 -9.999 -99.9 -99.99 -9.99
2019/04/25 13:48 PDT    1.28   1.86    9  246   15  53.1  59.5 1015.5 -9.9 -9.999 -99.9 -99.99 -9.99
2019/04/25 13:54 PDT    1.36   1.92    9  262   15  53.1  59.5 1015.4 -9.9 -9.999 -99.9 -99.99 -9.99
2019/04/25 14:00 PDT    1.44   2.00   11  244   21  53.2  59.7 1015.5 -9.9 -9.999 -99.9 -99.99 -9.99
2019/04/25 14:06 PDT    1.52   2.09    9  242   20  53.2  59.7 1015.5 -9.9 -9.999 -99.9 -99.99 -9.99
2019/04/25 14:12 PDT    1.60   2.17    9  243   18  53.2  60.1 1015.5 -9.9 -9.999 -99.9 -99.99 -9.99
2019/04/25 14:18 PDT    1.68   2.25   12  243   18  53.1  60.3 1015.4 -9.9 -9.999 -99.9 -99.99 -9.99
2019/04/25 14:24 PDT    1.76   2.32   13  249   20  53.1  60.3 1015.4 -9.9 -9.999 -99.9 -99.99 -9.99
2019/04/25 14:30 PDT    1.84   2.39   14  241   22  53.1  60.3 1015.3 -9.9 -9.999 -99.9 -99.99 -9.99
2019/04/25 14:36 PDT    1.93   2.46   14  240   20  53.4  60.3 1015.2 -9.9 -9.999 -99.9 -99.99 -9.99
2019/04/25 14:42 PDT    2.01   2.52   14  244   20  53.6  60.3 1015.2 -9.9 -9.999 -99.9 -99.99 -9.99
2019/04/25 14:48 PDT    2.09   2.59   10  250   17  54.0  60.3 1015.2 -9.9 -9.999 -99.9 -99.99 -9.99
2019/04/25 14:54 PDT    2.17   2.71   12  251   19  53.2  60.3 1015.2 -9.9 -9.999 -99.9 -99.99 -9.99
2019/04/25 15:00 PDT    2.26   2.76   11  265   17  53.2  60.4 1015.2 -9.9 -9.999 -99.9 -99.99 -9.99
2019/04/25 15:06 PDT    2.34   2.82    9  249   18  53.8  60.4 1015.2 -9.9 -9.999 -99.9 -99.99 -9.99
2019/04/25 15:12 PDT    2.42   2.92   11  258   18  53.4  60.3 1015.2 -9.9 -9.999 -99.9 -99.99 -9.99
2019/04/25 15:18 PDT    2.50   3.00   13  261   18  52.9  60.1 1015.1 -9.9 -9.999 -99.9 -99.99 -9.99
2019/04/25 15:24 PDT    2.59   3.06   11  253   17  52.9  59.7 1015.0 -9.9 -9.999 -99.9 -99.99 -9.99
2019/04/25 15:30 PDT    2.67   3.13   11  250   19  53.1  59.5 1015.0 -9.9 -9.999 -99.9 -99.99 -9.99
2019/04/25 15:36 PDT    2.75   3.20   11  260   18  52.7  59.5 1014.9 -9.9 -9.999 -99.9 -99.99 -9.99
2019/04/25 15:42 PDT    2.83   3.26   11  258   16  53.1  58.8 1014.9 -9.9 -9.999 -99.9 -99.99 -9.99
2019/04/25 15:48 PDT    2.91   3.34   11  253   18  52.9  58.5 1014.9 -9.9 -9.999 -99.9 -99.99 -9.99
2019/04/25 15:54 PDT    2.99   3.42   11  242   20  52.9  58.1 1014.8 -9.9 -9.999 -99.9 -99.99 -9.99
2019/04/25 16:00 PDT    3.07   3.50   12  257   19  52.7  58.1 1014.8 -9.9 -9.999 -99.9 -99.99 -9.99
2019/04/25 16:06 PDT    3.14   3.56   12  260   20  52.3  57.9 1014.8 -9.9 -9.999 -99.9 -99.99 -9.99
2019/04/25 16:12 PDT    3.22   3.61   14  245   20  52.0  57.6 1014.8 -9.9 -9.999 -99.9 -99.99 -9.99
2019/04/25 16:18 PDT    3.29   3.69   14  256   19  51.8  56.7 1014.7 -9.9 -9.999 -99.9 -99.99 -9.99
2019/04/25 16:24 PDT    3.36   3.73   15  243   21  52.0  55.8 1014.6 -9.9 -9.999 -99.9 -99.99 -9.99
2019/04/25 16:30 PDT    3.44   3.78   13  257   19  52.0  55.6 1014.6 -9.9 -9.999 -99.9 -99.99 -9.99
2019/04/25 16:36 PDT    3.50   3.84   16  243   22  52.0  55.8 1014.6 -9.9 -9.999 -99.9 -99.99 -9.99
2019/04/25 16:42 PDT    3.57   3.89   16  263   22  51.8  55.2 1014.6 -9.9 -9.999 -99.9 -99.99 -9.99
2019/04/25 16:48 PDT    3.64   3.96   12  264   21  52.0  55.0 1014.7 -9.9 -9.999 -99.9 -99.99 -9.99
2019/04/25 16:54 PDT    3.70   4.05    9  262   19  52.2  54.5 1014.7 -9.9 -9.999 -99.9 -99.99 -9.99
2019/04/25 17:00 PDT    3.76   4.09   15  265   22  51.6  54.1 1014.7 -9.9 -9.999 -99.9 -99.99 -9.99
2019/04/25 17:06 PDT    3.82   4.12   11  264   20  51.6  54.1 1014.7 -9.9 -9.999 -99.9 -99.99 -9.99
2019/04/25 17:12 PDT    3.87   4.14   14  270   20  51.8  54.1 1014.7 -9.9 -9.999 -99.9 -99.99 -9.99
2019/04/25 17:18 PDT    3.93   4.18   11  266   22  51.8  54.1 1014.7 -9.9 -9.999 -99.9 -99.99 -9.99
2019/04/25 17:24 PDT    3.98   4.22   11  264   17  51.8  54.3 1014.7 -9.9 -9.999 -99.9 -99.99 -9.99
2019/04/25 17:30 PDT    4.02   4.27   15  267   21  51.6  54.3 1014.7 -9.9 -9.999 -99.9 -99.99 -9.99
2019/04/25 17:36 PDT    4.07   4.31   10  267   17  52.0  53.6 1014.7 -9.9 -9.999 -99.9 -99.99 -9.99
2019/04/25 17:42 PDT    4.11   4.34    9  259   22  52.0  53.8 1014.7 -9.9 -9.999 -99.9 -99.99 -9.99
2019/04/25 17:48 PDT    4.15   4.37    9  254   16  52.0  53.6 1014.7 -9.9 -9.999 -99.9 -99.99 -9.99
2019/04/25 17:54 PDT    4.18   4.42   11  259   16  51.8  53.6 1014.7 -9.9 -9.999 -99.9 -99.99 -9.99
2019/04/25 18:00 PDT    4.21   4.47    7  255   15  51.8  53.4 1014.7 -9.9 -9.999 -99.9 -99.99 -9.99
2019/04/25 18:06 PDT    4.24   4.49   11  256   17  52.0  53.4 1014.7 -9.9 -9.999 -99.9 -99.99 -9.99
2019/04/25 18:12 PDT    4.26   4.50   10  259   15  51.8  53.2 1014.7 -9.9 -9.999 -99.9 -99.99 -9.99
2019/04/25 18:18 PDT    4.28   4.52   10  264   19  51.8  53.2 1014.7 -9.9 -9.999 -99.9 -99.99 -9.99
2019/04/25 18:24 PDT    4.30   4.55    9  259   18  51.6  53.1 1014.7 -9.9 -9.999 -99.9 -99.99 -9.99
2019/04/25 18:30 PDT    4.32   4.58    9  259   18  51.6  53.4 1014.7 -9.9 -9.999 -99.9 -99.99 -9.99
2019/04/25 18:36 PDT    4.33   4.58   11  269   17  51.3  53.2 1014.7 -9.9 -9.999 -99.9 -99.99 -9.99
2019/04/25 18:42 PDT    4.34   4.58   10  271   19  51.3  53.4 1014.7 -9.9 -9.999 -99.9 -99.99 -9.99
2019/04/25 18:48 PDT    4.34   4.58   10  268   19  51.3  53.2 1014.8 -9.9 -9.999 -99.9 -99.99 -9.99
2019/04/25 18:54 PDT    4.34   4.59   11  266   17  51.3  53.1 1014.8 -9.9 -9.999 -99.9 -99.99 -9.99
2019/04/25 19:00 PDT    4.34   4.56   12  274   19  51.3  52.9 1014.7 -9.9 -9.999 -99.9 -99.99 -9.99
2019/04/25 19:06 PDT    4.34   4.58   12  269   17  51.3  53.1 1014.7 -9.9 -9.999 -99.9 -99.99 -9.99
2019/04/25 19:12 PDT    4.33   4.59   12  268   20  51.3  53.1 1014.7 -9.9 -9.999 -99.9 -99.99 -9.99
2019/04/25 19:18 PDT    4.32   4.56   10  258   20  51.3  53.1 1014.7 -9.9 -9.999 -99.9 -99.99 -9.99
2019/04/25 19:24 PDT    4.31   4.59    9  263   17  51.3  53.1 1014.7 -9.9 -9.999 -99.9 -99.99 -9.99
2019/04/25 19:30 PDT    4.29   4.59   10  269   18  51.3  53.2 1014.7 -9.9 -9.999 -99.9 -99.99 -9.99
2019/04/25 19:36 PDT    4.27   4.54   12  270   17  50.9  53.4 1014.7 -9.9 -9.999 -99.9 -99.99 -9.99
2019/04/25 19:42 PDT    4.25   4.52   11  259   20  50.9  53.4 1014.8 -9.9 -9.999 -99.9 -99.99 -9.99
2019/04/25 19:48 PDT    4.23   4.52   10  274   16  51.1  53.4 1014.8 -9.9 -9.999 -99.9 -99.99 -9.99
2019/04/25 19:54 PDT    4.20   4.51    8  265   18  51.4  53.1 1014.9 -9.9 -9.999 -99.9 -99.99 -9.99
2019/04/25 20:00 PDT    4.18   4.49    8  264   14  51.4  53.4 1014.9 -9.9 -9.999 -99.9 -99.99 -9.99
2019/04/25 20:06 PDT    4.15   4.49    8  276   11  51.4  54.9 1014.9 -9.9 -9.999 -99.9 -99.99 -9.99
2019/04/25 20:12 PDT    4.12   4.46    9  267   13  51.4  55.8 1014.9 -9.9 -9.999 -99.9 -99.99 -9.99
2019/04/25 20:18 PDT    4.08   4.45    6  250   15  51.6  56.3 1015.0 -9.9 -9.999 -99.9 -99.99 -9.99
2019/04/25 20:24 PDT    4.05   4.43    6  265   12  51.4  56.3 1015.0 -9.9 -9.999 -99.9 -99.99 -9.99
2019/04/25 20:30 PDT    4.01   4.40    6  238   15  51.1  56.3 1015.1 -9.9 -9.999 -99.9 -99.99 -9.99
2019/04/25 20:36 PDT    3.97   4.37    7  269   12  51.1  55.9 1015.1 -9.9 -9.999 -99.9 -99.99 -9.99
2019/04/25 20:42 PDT    3.94   4.30    7  239   16  51.3  55.8 1015.1 -9.9 -9.999 -99.9 -99.99 -9.99
2019/04/25 20:48 PDT    3.90   4.29    8  250   14  51.4  55.6 1015.2 -9.9 -9.999 -99.9 -99.99 -9.99
2019/04/25 20:54 PDT    3.86   4.26    6  254   15  51.6  55.6 1015.2 -9.9 -9.999 -99.9 -99.99 -9.99
2019/04/25 21:00 PDT    3.82   4.23    6  254   12  51.6  55.6 1015.3 -9.9 -9.999 -99.9 -99.99 -9.99
2019/04/25 21:06 PDT    3.78   4.22    6  260   13  51.8  55.6 1015.3 -9.9 -9.999 -99.9 -99.99 -9.99
2019/04/25 21:12 PDT    3.74   4.18    5  237   13  52.0  55.6 1015.4 -9.9 -9.999 -99.9 -99.99 -9.99
2019/04/25 21:18 PDT    3.70   4.15    7  266   12  52.0  55.4 1015.4 -9.9 -9.999 -99.9 -99.99 -9.99
2019/04/25 21:24 PDT    3.66   4.10    5  236   12  52.3  55.2 1015.5 -9.9 -9.999 -99.9 -99.99 -9.99
2019/04/25 21:30 PDT    3.62   4.04    7  247   13  52.3  55.2 1015.5 -9.9 -9.999 -99.9 -99.99 -9.99
2019/04/25 21:36 PDT    3.58   4.02    7  266   13  52.5  55.2 1015.5 -9.9 -9.999 -99.9 -99.99 -9.99
2019/04/25 21:42 PDT    3.54   3.99    6  235   12  52.7  55.2 1015.5 -9.9 -9.999 -99.9 -99.99 -9.99
2019/04/25 21:48 PDT    3.50   3.96    7  249   10  52.9  55.4 1015.6 -9.9 -9.999 -99.9 -99.99 -9.99
2019/04/25 21:54 PDT    3.46   3.94    6  261   10  52.7  55.4 1015.7 -9.9 -9.999 -99.9 -99.99 -9.99
2019/04/25 22:00 PDT    3.43   3.91    4  243    9  52.7  55.2 1015.7 -9.9 -9.999 -99.9 -99.99 -9.99
2019/04/25 22:06 PDT    3.39   3.86    4  239    8  52.9  55.2 1015.7 -9.9 -9.999 -99.9 -99.99 -9.99
2019/04/25 22:12 PDT    3.36   3.82    5  234   10  52.9  55.2 1015.7 -9.9 -9.999 -99.9 -99.99 -9.99
2019/04/25 22:18 PDT    3.33   3.78    5  253   11  52.9  55.2 1015.7 -9.9 -9.999 -99.9 -99.99 -9.99
2019/04/25 22:24 PDT    3.30   3.74    3  253   14  52.9  55.0 1015.7 -9.9 -9.999 -99.9 -99.99 -9.99
2019/04/25 22:30 PDT    3.27   3.69    6  227   12  52.9  55.2 1015.7 -9.9 -9.999 -99.9 -99.99 -9.99
2019/04/25 22:36 PDT    3.24   3.67    6  246   13  52.9  55.4 1015.7 -9.9 -9.999 -99.9 -99.99 -9.99
2019/04/25 22:42 PDT    3.22   3.66    6  254   11  52.9  55.4 1015.7 -9.9 -9.999 -99.9 -99.99 -9.99
2019/04/25 22:48 PDT    3.20   3.64    9  250   13  52.7  55.2 1015.7 -9.9 -9.999 -99.9 -99.99 -9.99
2019/04/25 22:54 PDT    3.17   3.63    8  244   14  52.9  55.0 1015.6 -9.9 -9.999 -99.9 -99.99 -9.99
2019/04/25 23:00 PDT    3.15   3.61    9  264   14  52.9  55.0 1015.6 -9.9 -9.999 -99.9 -99.99 -9.99
2019/04/25 23:06 PDT    3.14   3.60    7  250   13  52.9  54.9 1015.5 -9.9 -9.999 -99.9 -99.99 -9.99
2019/04/25 23:12 PDT    3.12   3.59    4  247   10  53.1  54.7 1015.5 -9.9 -9.999 -99.9 -99.99 -9.99
2019/04/25 23:18 PDT    3.11   3.59    5  253   11  52.9  54.7 1015.5 -9.9 -9.999 -99.9 -99.99 -9.99
2019/04/25 23:24 PDT    3.10   3.61    6  261   13  52.9  54.9 1015.5 -9.9 -9.999 -99.9 -99.99 -9.99
2019/04/25 23:30 PDT    3.09   3.64    7  257   11  52.9  54.9 1015.6 -9.9 -9.999 -99.9 -99.99 -9.99
2019/04/25 23:36 PDT    3.08   3.64    4  238    8  53.1  54.7 1015.5 -9.9 -9.999 -99.9 -99.99 -9.99
2019/04/25 23:42 PDT    3.08   3.64    7  228   12  52.9  54.7 1015.5 -9.9 -9.999 -99.9 -99.99 -9.99
2019/04/25 23:48 PDT    3.08   3.65    4  264   10  52.9  54.7 1015.6 -9.9 -9.999 -99.9 -99.99 -9.99
2019/04/25 23:54 PDT    3.08   3.64    4  245    9  52.9  54.7 1015.6 -9.9 -9.999 -99.9 -99.99 -9.99
2019/04/26 00:00 PDT    3.09   3.62    1  183    8  52.9  54.5 1015.6 -9.9 -9.999 -99.9 -99.99 -9.99
2019/04/26 00:06 PDT    3.09   3.63    6  252   11  52.7  54.5 1015.6 -9.9 -9.999 -99.9 -99.99 -9.99
2019/04/26 00:12 PDT    3.10   3.65    5  271   11  52.7  54.5 1015.6 -9.9 -9.999 -99.9 -99.99 -9.99
2019/04/26 00:18 PDT    3.11   3.66    4  204    8  52.7  54.7 1015.6 -9.9 -9.999 -99.9 -99.99 -9.99
2019/04/26 00:24 PDT    3.13   3.68    5  220    9  52.9  55.0 1015.6 -9.9 -9.999 -99.9 -99.99 -9.99
2019/04/26 00:30 PDT    3.14   3.70    5  221    8  52.7  55.6 1015.5 -9.9 -9.999 -99.9 -99.99 -9.99
2019/04/26 00:36 PDT    3.16   3.71    4  274    9  52.7  56.1 1015.5 -9.9 -9.999 -99.9 -99.99 -9.99
2019/04/26 00:42 PDT    3.19   3.71    3  262   12  52.7  56.3 1015.6 -9.9 -9.999 -99.9 -99.99 -9.99
2019/04/26 00:48 PDT    3.21   3.76    2  221   10  52.7  56.3 1015.6 -9.9 -9.999 -99.9 -99.99 -9.99
2019/04/26 00:54 PDT    3.24   3.78    3  286    6  52.7  56.3 1015.6 -9.9 -9.999 -99.9 -99.99 -9.99
2019/04/26 01:00 PDT    3.27   3.79    4  260   11  52.7  56.3 1015.6 -9.9 -9.999 -99.9 -99.99 -9.99
2019/04/26 01:06 PDT    3.30   3.81    4  244   12  52.7  56.3 1015.5 -9.9 -9.999 -99.9 -99.99 -9.99
2019/04/26 01:12 PDT    3.33   3.86    3  203    8  52.9  56.3 1015.6 -9.9 -9.999 -99.9 -99.99 -9.99
2019/04/26 01:18 PDT    3.37   3.92    7  188   13  52.7  56.3 1015.6 -9.9 -9.999 -99.9 -99.99 -9.99
2019/04/26 01:24 PDT    3.40   3.99    2  225    8  52.7  56.3 1015.5 -9.9 -9.999 -99.9 -99.99 -9.99
2019/04/26 01:30 PDT    3.44   4.00    2  224    4  52.7  56.3 1015.5 -9.9 -9.999 -99.9 -99.99 -9.99
2019/04/26 01:36 PDT    3.48   4.03    5  231   10  52.5  56.3 1015.4 -9.9 -9.999 -99.9 -99.99 -9.99
2019/04/26 01:42 PDT    3.52   4.06    6  260   11  52.3  56.3 1015.4 -9.9 -9.999 -99.9 -99.99 -9.99
2019/04/26 01:48 PDT    3.57   4.09    3  213    8  52.5  56.3 1015.3 -9.9 -9.999 -99.9 -99.99 -9.99
2019/04/26 01:54 PDT    3.61   4.14    5  207   11  52.7  56.3 1015.3 -9.9 -9.999 -99.9 -99.99 -9.99
2019/04/26 02:00 PDT    3.65   4.18    3  240    7  52.5  56.5 1015.3 -9.9 -9.999 -99.9 -99.99 -9.99
2019/04/26 02:06 PDT    3.70   4.22    4  231    8  52.7  56.5 1015.3 -9.9 -9.999 -99.9 -99.99 -9.99
2019/04/26 02:12 PDT    3.74   4.24    5  240   10  52.5  56.5 1015.3 -9.9 -9.999 -99.9 -99.99 -9.99
2019/04/26 02:18 PDT    3.79   4.27    4  206    8  52.5  56.5 1015.3 -9.9 -9.999 -99.9 -99.99 -9.99
2019/04/26 02:24 PDT    3.84   4.30    5  228    8  52.5  56.5 1015.2 -9.9 -9.999 -99.9 -99.99 -9.99
2019/04/26 02:30 PDT    3.88   4.33    4  207    7  52.5  56.5 1015.1 -9.9 -9.999 -99.9 -99.99 -9.99
2019/04/26 02:36 PDT    3.93   4.38    3  245    8  52.5  56.5 1015.1 -9.9 -9.999 -99.9 -99.99 -9.99
2019/04/26 02:42 PDT    3.97   4.42    8  213   11  52.3  56.5 1015.1 -9.9 -9.999 -99.9 -99.99 -9.99
2019/04/26 02:48 PDT    4.02   4.48    5  209    9  52.3  56.5 1015.1 -9.9 -9.999 -99.9 -99.99 -9.99
2019/04/26 02:54 PDT    4.06   4.52    5  228    9  52.3  56.3 1015.1 -9.9 -9.999 -99.9 -99.99 -9.99
2019/04/26 03:00 PDT    4.10   4.49    7  230   11  52.3  56.3 1015.0 -9.9 -9.999 -99.9 -99.99 -9.99
2019/04/26 03:06 PDT    4.14   4.54    4  231   10  52.3  56.1 1014.9 -9.9 -9.999 -99.9 -99.99 -9.99
2019/04/26 03:12 PDT    4.18   4.57    4  235    9  52.2  56.3 1014.9 -9.9 -9.999 -99.9 -99.99 -9.99
2019/04/26 03:18 PDT    4.22   4.64    4  215    8  52.2  56.3 1014.9 -9.9 -9.999 -99.9 -99.99 -9.99
2019/04/26 03:24 PDT    4.26   4.72    5  201    8  52.2  56.5 1014.9 -9.9 -9.999 -99.9 -99.99 -9.99
2019/04/26 03:30 PDT    4.30   4.78    5  223    8  52.3  56.5 1014.9 -9.9 -9.999 -99.9 -99.99 -9.99
2019/04/26 03:36 PDT    4.33   4.80    5  236   10  52.2  56.7 1015.0 -9.9 -9.999 -99.9 -99.99 -9.99
2019/04/26 03:42 PDT    4.37   4.83    4  252    6  52.3  56.7 1015.0 -9.9 -9.999 -99.9 -99.99 -9.99
2019/04/26 03:48 PDT    4.40   4.86    4  234    9  52.2  56.7 1015.0 -9.9 -9.999 -99.9 -99.99 -9.99
2019/04/26 03:54 PDT    4.43   4.90    5  232    8  52.2  56.7 1015.0 -9.9 -9.999 -99.9 -99.99 -9.99
2019/04/26 04:00 PDT    4.46   4.89    5  242    8  52.2  56.7 1015.0 -9.9 -9.999 -99.9 -99.99 -9.99
2019/04/26 04:06 PDT    4.48   4.89    6  252    9  52.2  56.7 1015.0 -9.9 -9.999 -99.9 -99.99 -9.99
2019/04/26 04:12 PDT    4.51   4.91    3  236    8  52.2  56.3 1015.0 -9.9 -9.999 -99.9 -99.99 -9.99
2019/04/26 04:18 PDT    4.53   4.93    5  226    7  52.2  56.3 1015.0 -9.9 -9.999 -99.9 -99.99 -9.99
2019/04/26 04:24 PDT    4.55   4.97    4  235    6  52.3  56.5 1015.0 -9.9 -9.999 -99.9 -99.99 -9.99
2019/04/26 04:30 PDT    4.56   5.01    6  207    9  52.2  56.1 1014.9 -9.9 -9.999 -99.9 -99.99 -9.99
2019/04/26 04:36 PDT    4.57   5.02    3  219    8  52.2  56.1 1014.9 -9.9 -9.999 -99.9 -99.99 -9.99
2019/04/26 04:42 PDT    4.58   4.97    6  228   10  52.2  55.9 1014.9 -9.9 -9.999 -99.9 -99.99 -9.99
2019/04/26 04:48 PDT    4.59   4.94    5  219    8  52.2  55.9 1014.8 -9.9 -9.999 -99.9 -99.99 -9.99
2019/04/26 04:54 PDT    4.60   4.94    5  256    9  52.2  55.8 1014.8 -9.9 -9.999 -99.9 -99.99 -9.99
2019/04/26 05:00 PDT    4.60   4.92    3  227    8  52.0  55.8 1014.8 -9.9 -9.999 -99.9 -99.99 -9.99
2019/04/26 05:06 PDT    4.59   4.95    3  213    8  52.2  55.8 1014.8 -9.9 -9.999 -99.9 -99.99 -9.99
2019/04/26 05:12 PDT    4.59   4.96    3  224    6  52.2  55.6 1014.9 -9.9 -9.999 -99.9 -99.99 -9.99
2019/04/26 05:18 PDT    4.58   4.98    6  242    8  52.0  55.6 1014.9 -9.9 -9.999 -99.9 -99.99 -9.99
2019/04/26 05:24 PDT    4.56   4.95    6  232    9  52.0  55.4 1014.9 -9.9 -9.999 -99.9 -99.99 -9.99
2019/04/26 05:30 PDT    4.55   4.90    5  225    9  52.0  55.2 1014.9 -9.9 -9.999 -99.9 -99.99 -9.99
2019/04/26 05:36 PDT    4.53   4.86    2  244    8  52.2  55.0 1015.0 -9.9 -9.999 -99.9 -99.99 -9.99
2019/04/26 05:42 PDT    4.50   4.84    4  216    8  52.2  55.0 1015.0 -9.9 -9.999 -99.9 -99.99 -9.99
2019/04/26 05:48 PDT    4.47   4.84    7  246   12  52.0  55.0 1015.0 -9.9 -9.999 -99.9 -99.99 -9.99
2019/04/26 05:54 PDT    4.44   4.83    4  223   12  52.0  55.0 1015.0 -9.9 -9.999 -99.9 -99.99 -9.99
2019/04/26 06:00 PDT    4.40   4.80    6  246    9  52.2  55.2 1015.0 -9.9 -9.999 -99.9 -99.99 -9.99
2019/04/26 06:06 PDT    4.36   4.76    6  237    8  52.2  55.2 1015.0 -9.9 -9.999 -99.9 -99.99 -9.99
2019/04/26 06:12 PDT    4.32   4.73    4  251    8  52.2  55.2 1015.0 -9.9 -9.999 -99.9 -99.99 -9.99
2019/04/26 06:18 PDT    4.27   4.66    6  244    9  52.2  55.0 1015.0 -9.9 -9.999 -99.9 -99.99 -9.99
2019/04/26 06:24 PDT    4.21   4.63    2  207    7  52.2  54.9 1015.0 -9.9 -9.999 -99.9 -99.99 -9.99
2019/04/26 06:30 PDT    4.16   4.59    4  241    7  52.3  54.9 1015.0 -9.9 -9.999 -99.9 -99.99 -9.99
2019/04/26 06:36 PDT    4.10   4.51    3  230    9  52.2  54.7 1015.1 -9.9 -9.999 -99.9 -99.99 -9.99
2019/04/26 06:42 PDT    4.03   4.46    2  227    7  52.2  54.7 1015.1 -9.9 -9.999 -99.9 -99.99 -9.99
2019/04/26 06:48 PDT    3.97   4.43    2  239    8  52.3  54.7 1015.1 -9.9 -9.999 -99.9 -99.99 -9.99
2019/04/26 06:54 PDT    3.90   4.41    4  250    8  52.3  55.8 1015.1 -9.9 -9.999 -99.9 -99.99 -9.99
2019/04/26 07:00 PDT    3.82   4.33    4  254    9  52.2  56.3 1015.2 -9.9 -9.999 -99.9 -99.99 -9.99
2019/04/26 07:06 PDT    3.75   4.24    4  249    6  52.2  56.5 1015.1 -9.9 -9.999 -99.9 -99.99 -9.99
2019/04/26 07:12 PDT    3.67 -99.99 -999 -999 -999 -99.9 -99.9 -999.9 -9.9 -9.999 -99.9 -99.99 -9.99
2019/04/26 07:18 PDT    3.59 -99.99 -999 -999 -999 -99.9 -99.9 -999.9 -9.9 -9.999 -99.9 -99.99 -9.99
2019/04/26 07:24 PDT    3.50 -99.99 -999 -999 -999 -99.9 -99.9 -999.9 -9.9 -9.999 -99.9 -99.99 -9.99

Revised: 08/08/2018
NOAA / National Ocean Service
Web site owner: Center for Operational Oceanographic Products and Services